<?xml version='1.0' encoding='UTF-8'?><gpx version="1.1" creator="JPX - https://github.com/jenetics/jpx" xmlns="http://www.topografix.com/GPX/1/1"><trk><trkseg><trkpt lat="44.3041037" lon="10.2112247"><ele>1252.0</ele><time>2026-04-16T11:25:04.035Z</time></trkpt><trkpt lat="44.3040841" lon="10.2111354"><ele>1252.0</ele><time>2026-04-16T11:25:10.035Z</time></trkpt><trkpt lat="44.3040559" lon="10.2110567"><ele>1252.0</ele><time>2026-04-16T11:25:18.034Z</time></trkpt><trkpt lat="44.3040047" lon="10.2109973"><ele>1252.0</ele><time>2026-04-16T11:25:25.035Z</time></trkpt><trkpt lat="44.3039574" lon="10.2109356"><ele>1252.0</ele><time>2026-04-16T11:25:32.035Z</time></trkpt><trkpt lat="44.3039561" lon="10.2108382"><ele>1252.0</ele><time>2026-04-16T11:25:40.035Z</time></trkpt><trkpt lat="44.3039545" lon="10.2107498"><ele>1252.0</ele><time>2026-04-16T11:25:49.035Z</time></trkpt><trkpt lat="44.3039876" lon="10.2106576"><ele>1254.4285714285713</ele><time>2026-04-16T11:25:59.034Z</time></trkpt><trkpt lat="44.3040127" lon="10.2105651"><ele>1256.857142857143</ele><time>2026-04-16T11:26:08.033Z</time></trkpt><trkpt lat="44.3040725" lon="10.2105145"><ele>1259.2857142857142</ele><time>2026-04-16T11:26:23.034Z</time></trkpt><trkpt lat="44.3041325" lon="10.210542"><ele>1261.7142857142858</ele><time>2026-04-16T11:26:28.053Z</time></trkpt><trkpt lat="44.304124" lon="10.2106568"><ele>1264.142857142857</ele><time>2026-04-16T11:26:44.034Z</time></trkpt><trkpt lat="44.3042003" lon="10.2106451"><ele>1266.5714285714287</ele><time>2026-04-16T11:26:55.035Z</time></trkpt><trkpt lat="44.3042735" lon="10.2106461"><ele>1269.0</ele><time>2026-04-16T11:27:00.034Z</time></trkpt><trkpt lat="44.3043433" lon="10.2106545"><ele>1269.0</ele><time>2026-04-16T11:27:05.035Z</time></trkpt><trkpt lat="44.3044115" lon="10.2106652"><ele>1269.0</ele><time>2026-04-16T11:27:10.034Z</time></trkpt><trkpt lat="44.3044794" lon="10.2106992"><ele>1269.0</ele><time>2026-04-16T11:27:16.035Z</time></trkpt><trkpt lat="44.3045468" lon="10.2106764"><ele>1269.0</ele><time>2026-04-16T11:27:24.03Z</time></trkpt><trkpt lat="44.3046127" lon="10.2106366"><ele>1269.0</ele><time>2026-04-16T11:27:31.035Z</time></trkpt><trkpt lat="44.3046777" lon="10.2106421"><ele>1269.0</ele><time>2026-04-16T11:27:38.035Z</time></trkpt><trkpt lat="44.3047403" lon="10.2106924"><ele>1269.0</ele><time>2026-04-16T11:27:46.046Z</time></trkpt><trkpt lat="44.3047669" lon="10.2107727"><ele>1267.0</ele><time>2026-04-16T11:27:53.052Z</time></trkpt><trkpt lat="44.3048031" lon="10.2108508"><ele>1265.0</ele><time>2026-04-16T11:28:03.035Z</time></trkpt><trkpt lat="44.3048541" lon="10.210918"><ele>1263.0</ele><time>2026-04-16T11:28:12.035Z</time></trkpt><trkpt lat="44.3049201" lon="10.2109292"><ele>1261.0</ele><time>2026-04-16T11:28:18.035Z</time></trkpt><trkpt lat="44.3049923" lon="10.210944"><ele>1259.0</ele><time>2026-04-16T11:28:25.051Z</time></trkpt><trkpt lat="44.3050589" lon="10.2109292"><ele>1257.0</ele><time>2026-04-16T11:28:31.034Z</time></trkpt><trkpt lat="44.3051294" lon="10.2109253"><ele>1255.0</ele><time>2026-04-16T11:28:38.034Z</time></trkpt><trkpt lat="44.3051829" lon="10.2108632"><ele>1255.0</ele><time>2026-04-16T11:28:44.035Z</time></trkpt><trkpt lat="44.3052546" lon="10.2108477"><ele>1255.0</ele><time>2026-04-16T11:28:51.013Z</time></trkpt><trkpt lat="44.3053166" lon="10.2108262"><ele>1255.0</ele><time>2026-04-16T11:28:57.034Z</time></trkpt><trkpt lat="44.30538" lon="10.2108194"><ele>1255.0</ele><time>2026-04-16T11:29:03.048Z</time></trkpt><trkpt lat="44.3054392" lon="10.2107708"><ele>1255.0</ele><time>2026-04-16T11:29:08.968Z</time></trkpt><trkpt lat="44.3054928" lon="10.2107075"><ele>1255.0</ele><time>2026-04-16T11:29:15.034Z</time></trkpt><trkpt lat="44.3055354" lon="10.210632"><ele>1255.0</ele><time>2026-04-16T11:29:21.034Z</time></trkpt><trkpt lat="44.3055701" lon="10.2105462"><ele>1257.5714285714287</ele><time>2026-04-16T11:29:27.051Z</time></trkpt><trkpt lat="44.3055889" lon="10.2104524"><ele>1260.142857142857</ele><time>2026-04-16T11:29:34.034Z</time></trkpt><trkpt lat="44.305655" lon="10.2104355"><ele>1262.7142857142858</ele><time>2026-04-16T11:29:40.034Z</time></trkpt><trkpt lat="44.3057229" lon="10.2104649"><ele>1265.2857142857142</ele><time>2026-04-16T11:29:46.035Z</time></trkpt><trkpt lat="44.3057866" lon="10.2104639"><ele>1267.857142857143</ele><time>2026-04-16T11:29:52.054Z</time></trkpt><trkpt lat="44.3058543" lon="10.2104626"><ele>1270.4285714285713</ele><time>2026-04-16T11:29:58.089Z</time></trkpt><trkpt lat="44.3059172" lon="10.2104278"><ele>1273.0</ele><time>2026-04-16T11:30:04.065Z</time></trkpt><trkpt lat="44.3059773" lon="10.2103954"><ele>1273.0</ele><time>2026-04-16T11:30:11.035Z</time></trkpt><trkpt lat="44.3060427" lon="10.2103784"><ele>1273.0</ele><time>2026-04-16T11:30:17.04Z</time></trkpt><trkpt lat="44.3061043" lon="10.2103462"><ele>1273.0</ele><time>2026-04-16T11:30:24.06Z</time></trkpt><trkpt lat="44.3061647" lon="10.2103193"><ele>1273.0</ele><time>2026-04-16T11:30:30.103Z</time></trkpt><trkpt lat="44.3062308" lon="10.2102925"><ele>1273.0</ele><time>2026-04-16T11:30:37.035Z</time></trkpt><trkpt lat="44.3062833" lon="10.2102415"><ele>1273.0</ele><time>2026-04-16T11:30:43.035Z</time></trkpt><trkpt lat="44.3063355" lon="10.2101727"><ele>1273.0</ele><time>2026-04-16T11:30:49.035Z</time></trkpt><trkpt lat="44.3063168" lon="10.2100819"><ele>1273.0</ele><time>2026-04-16T11:31:59.035Z</time></trkpt><trkpt lat="44.3063298" lon="10.2099859"><ele>1273.0</ele><time>2026-04-16T11:32:13.061Z</time></trkpt><trkpt lat="44.3063552" lon="10.2098776"><ele>1273.0</ele><time>2026-04-16T11:32:21.035Z</time></trkpt><trkpt lat="44.3063903" lon="10.2098025"><ele>1273.0</ele><time>2026-04-16T11:32:25.034Z</time></trkpt><trkpt lat="44.3064408" lon="10.2097307"><ele>1273.0</ele><time>2026-04-16T11:32:31.034Z</time></trkpt><trkpt lat="44.3064958" lon="10.2096641"><ele>1273.0</ele><time>2026-04-16T11:32:37.036Z</time></trkpt><trkpt lat="44.3065628" lon="10.2096848"><ele>1273.0</ele><time>2026-04-16T11:32:44.034Z</time></trkpt><trkpt lat="44.3065867" lon="10.2097735"><ele>1272.2857142857142</ele><time>2026-04-16T11:32:50.035Z</time></trkpt><trkpt lat="44.3065987" lon="10.2098646"><ele>1271.5714285714287</ele><time>2026-04-16T11:32:56.034Z</time></trkpt><trkpt lat="44.3066304" lon="10.2099555"><ele>1270.857142857143</ele><time>2026-04-16T11:33:04.034Z</time></trkpt><trkpt lat="44.3066909" lon="10.2099937"><ele>1270.142857142857</ele><time>2026-04-16T11:33:12.034Z</time></trkpt><trkpt lat="44.306736" lon="10.21007"><ele>1269.4285714285713</ele><time>2026-04-16T11:33:21.008Z</time></trkpt><trkpt lat="44.3067744" lon="10.2101418"><ele>1268.7142857142858</ele><time>2026-04-16T11:33:27.063Z</time></trkpt><trkpt lat="44.3068328" lon="10.2101931"><ele>1268.0</ele><time>2026-04-16T11:33:37.035Z</time></trkpt><trkpt lat="44.3069175" lon="10.2102039"><ele>1268.0</ele><time>2026-04-16T11:33:45.053Z</time></trkpt><trkpt lat="44.3069893" lon="10.2102057"><ele>1268.0</ele><time>2026-04-16T11:33:53.035Z</time></trkpt><trkpt lat="44.3070427" lon="10.210272"><ele>1268.0</ele><time>2026-04-16T11:34:00.035Z</time></trkpt><trkpt lat="44.3070848" lon="10.2103413"><ele>1268.0</ele><time>2026-04-16T11:34:06.035Z</time></trkpt><trkpt lat="44.3071457" lon="10.2103893"><ele>1268.0</ele><time>2026-04-16T11:34:12.059Z</time></trkpt><trkpt lat="44.3072072" lon="10.2104241"><ele>1268.0</ele><time>2026-04-16T11:34:19.035Z</time></trkpt><trkpt lat="44.3072746" lon="10.2104401"><ele>1268.0</ele><time>2026-04-16T11:34:26.029Z</time></trkpt><trkpt lat="44.3073391" lon="10.2104793"><ele>1269.142857142857</ele><time>2026-04-16T11:34:32.035Z</time></trkpt><trkpt lat="44.3074002" lon="10.2105139"><ele>1270.2857142857142</ele><time>2026-04-16T11:34:38.034Z</time></trkpt><trkpt lat="44.3074634" lon="10.2105566"><ele>1271.4285714285716</ele><time>2026-04-16T11:34:44.985Z</time></trkpt><trkpt lat="44.3075336" lon="10.2105823"><ele>1272.5714285714284</ele><time>2026-04-16T11:34:52.034Z</time></trkpt><trkpt lat="44.3076066" lon="10.2105781"><ele>1273.7142857142856</ele><time>2026-04-16T11:34:58.034Z</time></trkpt><trkpt lat="44.3076704" lon="10.2105671"><ele>1274.857142857143</ele><time>2026-04-16T11:35:04.034Z</time></trkpt><trkpt lat="44.3077357" lon="10.2105772"><ele>1276.0</ele><time>2026-04-16T11:35:09.034Z</time></trkpt><trkpt lat="44.3078009" lon="10.2105832"><ele>1276.0</ele><time>2026-04-16T11:35:15.025Z</time></trkpt><trkpt lat="44.3078712" lon="10.210604"><ele>1276.0</ele><time>2026-04-16T11:35:21.052Z</time></trkpt><trkpt lat="44.3079364" lon="10.2106174"><ele>1276.0</ele><time>2026-04-16T11:35:27.057Z</time></trkpt><trkpt lat="44.3079993" lon="10.2105927"><ele>1276.0</ele><time>2026-04-16T11:35:33.035Z</time></trkpt><trkpt lat="44.3080627" lon="10.2105565"><ele>1276.0</ele><time>2026-04-16T11:35:38.849Z</time></trkpt><trkpt lat="44.3081399" lon="10.2105386"><ele>1276.0</ele><time>2026-04-16T11:35:52.034Z</time></trkpt><trkpt lat="44.3082136" lon="10.2105255"><ele>1276.0</ele><time>2026-04-16T11:35:58.034Z</time></trkpt><trkpt lat="44.3082803" lon="10.2105156"><ele>1275.0</ele><time>2026-04-16T11:36:03.044Z</time></trkpt><trkpt lat="44.3083441" lon="10.2104957"><ele>1274.0</ele><time>2026-04-16T11:36:08.067Z</time></trkpt><trkpt lat="44.308395" lon="10.2104336"><ele>1273.0</ele><time>2026-04-16T11:36:13.034Z</time></trkpt><trkpt lat="44.308429" lon="10.2103485"><ele>1272.0</ele><time>2026-04-16T11:36:19.035Z</time></trkpt><trkpt lat="44.3084636" lon="10.2102546"><ele>1271.0</ele><time>2026-04-16T11:36:24.934Z</time></trkpt><trkpt lat="44.3084811" lon="10.2101582"><ele>1270.0</ele><time>2026-04-16T11:36:31.035Z</time></trkpt><trkpt lat="44.3085174" lon="10.2100804"><ele>1269.0</ele><time>2026-04-16T11:36:37.025Z</time></trkpt><trkpt lat="44.3085648" lon="10.210008"><ele>1269.0</ele><time>2026-04-16T11:36:43.05Z</time></trkpt><trkpt lat="44.3086039" lon="10.2099279"><ele>1269.0</ele><time>2026-04-16T11:36:49.034Z</time></trkpt><trkpt lat="44.3086554" lon="10.209865"><ele>1269.0</ele><time>2026-04-16T11:37:03.035Z</time></trkpt><trkpt lat="44.3086789" lon="10.2097754"><ele>1269.0</ele><time>2026-04-16T11:37:09.023Z</time></trkpt><trkpt lat="44.3086982" lon="10.2096802"><ele>1269.0</ele><time>2026-04-16T11:37:15.077Z</time></trkpt><trkpt lat="44.3087444" lon="10.2096202"><ele>1269.0</ele><time>2026-04-16T11:37:22.088Z</time></trkpt><trkpt lat="44.3086968" lon="10.2095522"><ele>1269.0</ele><time>2026-04-16T11:37:37.035Z</time></trkpt><trkpt lat="44.3086927" lon="10.2094584"><ele>1270.142857142857</ele><time>2026-04-16T11:38:25.036Z</time></trkpt><trkpt lat="44.3086882" lon="10.2093673"><ele>1271.2857142857142</ele><time>2026-04-16T11:38:31.036Z</time></trkpt><trkpt lat="44.3086707" lon="10.2092816"><ele>1272.4285714285713</ele><time>2026-04-16T11:38:36.954Z</time></trkpt><trkpt lat="44.3086627" lon="10.2091861"><ele>1273.5714285714284</ele><time>2026-04-16T11:38:43.035Z</time></trkpt><trkpt lat="44.3086304" lon="10.2090944"><ele>1274.7142857142858</ele><time>2026-04-16T11:38:49.079Z</time></trkpt><trkpt lat="44.3085919" lon="10.2090108"><ele>1275.8571428571427</ele><time>2026-04-16T11:38:56.036Z</time></trkpt><trkpt lat="44.3085757" lon="10.2089177"><ele>1277.0</ele><time>2026-04-16T11:39:02.064Z</time></trkpt><trkpt lat="44.3085323" lon="10.2088495"><ele>1278.2857142857142</ele><time>2026-04-16T11:39:08.065Z</time></trkpt><trkpt lat="44.3084999" lon="10.2087669"><ele>1279.5714285714284</ele><time>2026-04-16T11:39:14.119Z</time></trkpt><trkpt lat="44.3084815" lon="10.2086768"><ele>1280.8571428571427</ele><time>2026-04-16T11:39:21.061Z</time></trkpt><trkpt lat="44.3085115" lon="10.2085812"><ele>1282.142857142857</ele><time>2026-04-16T11:39:30.035Z</time></trkpt><trkpt lat="44.3085242" lon="10.2084939"><ele>1283.4285714285716</ele><time>2026-04-16T11:39:35.052Z</time></trkpt><trkpt lat="44.3085385" lon="10.2084043"><ele>1284.7142857142856</ele><time>2026-04-16T11:39:41.035Z</time></trkpt><trkpt lat="44.3085399" lon="10.208313"><ele>1286.0</ele><time>2026-04-16T11:39:48.035Z</time></trkpt><trkpt lat="44.3085904" lon="10.2082429"><ele>1286.0</ele><time>2026-04-16T11:39:55.036Z</time></trkpt><trkpt lat="44.3086447" lon="10.2081969"><ele>1286.0</ele><time>2026-04-16T11:40:00.035Z</time></trkpt><trkpt lat="44.3087041" lon="10.2081389"><ele>1286.0</ele><time>2026-04-16T11:40:07.036Z</time></trkpt><trkpt lat="44.3087204" lon="10.2080461"><ele>1286.0</ele><time>2026-04-16T11:40:13.035Z</time></trkpt><trkpt lat="44.3087052" lon="10.2079535"><ele>1286.0</ele><time>2026-04-16T11:40:18.948Z</time></trkpt><trkpt lat="44.308724" lon="10.2078671"><ele>1286.0</ele><time>2026-04-16T11:40:25.036Z</time></trkpt><trkpt lat="44.3087507" lon="10.207786"><ele>1286.0</ele><time>2026-04-16T11:40:32.035Z</time></trkpt><trkpt lat="44.3087761" lon="10.2077004"><ele>1287.4285714285713</ele><time>2026-04-16T11:40:39.036Z</time></trkpt><trkpt lat="44.3088279" lon="10.2076487"><ele>1288.857142857143</ele><time>2026-04-16T11:40:52.036Z</time></trkpt><trkpt lat="44.3088751" lon="10.2075808"><ele>1290.2857142857142</ele><time>2026-04-16T11:40:57.07Z</time></trkpt><trkpt lat="44.308886" lon="10.2074738"><ele>1291.7142857142858</ele><time>2026-04-16T11:41:04.036Z</time></trkpt><trkpt lat="44.3088826" lon="10.2073769"><ele>1293.142857142857</ele><time>2026-04-16T11:41:09.052Z</time></trkpt><trkpt lat="44.3088987" lon="10.2072795"><ele>1294.5714285714287</ele><time>2026-04-16T11:41:15.035Z</time></trkpt><trkpt lat="44.30892" lon="10.2071965"><ele>1296.0</ele><time>2026-04-16T11:41:21.036Z</time></trkpt><trkpt lat="44.3089354" lon="10.207099"><ele>1293.142857142857</ele><time>2026-04-16T11:41:27.036Z</time></trkpt><trkpt lat="44.3089872" lon="10.2070194"><ele>1290.2857142857142</ele><time>2026-04-16T11:41:34.014Z</time></trkpt><trkpt lat="44.3090284" lon="10.2069466"><ele>1287.4285714285716</ele><time>2026-04-16T11:41:40.035Z</time></trkpt><trkpt lat="44.3090812" lon="10.2068953"><ele>1284.5714285714284</ele><time>2026-04-16T11:41:46.036Z</time></trkpt><trkpt lat="44.3091467" lon="10.206866"><ele>1281.7142857142856</ele><time>2026-04-16T11:41:53.035Z</time></trkpt><trkpt lat="44.3091967" lon="10.2068113"><ele>1278.857142857143</ele><time>2026-04-16T11:41:59.035Z</time></trkpt><trkpt lat="44.3092293" lon="10.2067292"><ele>1276.0</ele><time>2026-04-16T11:42:05.035Z</time></trkpt><trkpt lat="44.3092776" lon="10.2066599"><ele>1276.0</ele><time>2026-04-16T11:42:12.036Z</time></trkpt><trkpt lat="44.3093281" lon="10.2066067"><ele>1276.0</ele><time>2026-04-16T11:42:18.036Z</time></trkpt><trkpt lat="44.3093887" lon="10.2065677"><ele>1276.0</ele><time>2026-04-16T11:42:24.068Z</time></trkpt><trkpt lat="44.3094449" lon="10.206525"><ele>1276.0</ele><time>2026-04-16T11:42:31.036Z</time></trkpt><trkpt lat="44.3095057" lon="10.2064673"><ele>1276.0</ele><time>2026-04-16T11:42:37.068Z</time></trkpt><trkpt lat="44.3095497" lon="10.2063988"><ele>1276.0</ele><time>2026-04-16T11:42:43.085Z</time></trkpt><trkpt lat="44.3095623" lon="10.2062942"><ele>1276.0</ele><time>2026-04-16T11:42:49.087Z</time></trkpt><trkpt lat="44.309588" lon="10.2062004"><ele>1277.2857142857144</ele><time>2026-04-16T11:42:54.038Z</time></trkpt><trkpt lat="44.309606" lon="10.2061158"><ele>1278.5714285714284</ele><time>2026-04-16T11:43:00.031Z</time></trkpt><trkpt lat="44.3095852" lon="10.2060324"><ele>1279.857142857143</ele><time>2026-04-16T11:43:05.035Z</time></trkpt><trkpt lat="44.3095548" lon="10.2059511"><ele>1281.1428571428573</ele><time>2026-04-16T11:43:10.056Z</time></trkpt><trkpt lat="44.3095341" lon="10.2058568"><ele>1282.4285714285716</ele><time>2026-04-16T11:43:16.095Z</time></trkpt><trkpt lat="44.3095118" lon="10.2057607"><ele>1283.7142857142858</ele><time>2026-04-16T11:43:21.953Z</time></trkpt><trkpt lat="44.3094693" lon="10.205686"><ele>1285.0</ele><time>2026-04-16T11:43:28.036Z</time></trkpt><trkpt lat="44.3094268" lon="10.2056083"><ele>1285.0000000000002</ele><time>2026-04-16T11:43:36.051Z</time></trkpt><trkpt lat="44.3094806" lon="10.2055613"><ele>1285.0</ele><time>2026-04-16T11:43:50.075Z</time></trkpt><trkpt lat="44.3095269" lon="10.2054752"><ele>1285.0</ele><time>2026-04-16T11:44:00.036Z</time></trkpt><trkpt lat="44.3095545" lon="10.2053887"><ele>1285.0</ele><time>2026-04-16T11:44:05.06Z</time></trkpt><trkpt lat="44.3095468" lon="10.2052883"><ele>1285.0</ele><time>2026-04-16T11:44:10.036Z</time></trkpt><trkpt lat="44.3095623" lon="10.2052026"><ele>1285.0000000000002</ele><time>2026-04-16T11:44:18.045Z</time></trkpt><trkpt lat="44.3095189" lon="10.2051089"><ele>1285.0</ele><time>2026-04-16T11:44:24.035Z</time></trkpt><trkpt lat="44.3095061" lon="10.2050207"><ele>1285.0000000000002</ele><time>2026-04-16T11:44:30.036Z</time></trkpt><trkpt lat="44.3094546" lon="10.2049411"><ele>1285.0</ele><time>2026-04-16T11:44:37.036Z</time></trkpt><trkpt lat="44.3093918" lon="10.204914"><ele>1285.0</ele><time>2026-04-16T11:44:41.968Z</time></trkpt><trkpt lat="44.3093602" lon="10.2048251"><ele>1285.0</ele><time>2026-04-16T11:44:48.036Z</time></trkpt><trkpt lat="44.3093085" lon="10.2047659"><ele>1285.0</ele><time>2026-04-16T11:44:56.036Z</time></trkpt><trkpt lat="44.3092507" lon="10.2047123"><ele>1285.0000000000002</ele><time>2026-04-16T11:45:05.036Z</time></trkpt><trkpt lat="44.3092523" lon="10.2046217"><ele>1285.0</ele><time>2026-04-16T11:45:12.71Z</time></trkpt><trkpt lat="44.309204" lon="10.20454"><ele>1283.857142857143</ele><time>2026-04-16T11:45:18.01Z</time></trkpt><trkpt lat="44.3091629" lon="10.2044669"><ele>1282.7142857142858</ele><time>2026-04-16T11:45:24.035Z</time></trkpt><trkpt lat="44.3092012" lon="10.2043771"><ele>1281.5714285714284</ele><time>2026-04-16T11:45:31.036Z</time></trkpt><trkpt lat="44.3092278" lon="10.2042913"><ele>1280.4285714285716</ele><time>2026-04-16T11:45:38.036Z</time></trkpt><trkpt lat="44.3092601" lon="10.204215"><ele>1279.2857142857142</ele><time>2026-04-16T11:45:45.025Z</time></trkpt><trkpt lat="44.3092839" lon="10.2041295"><ele>1278.142857142857</ele><time>2026-04-16T11:45:52.069Z</time></trkpt><trkpt lat="44.3093087" lon="10.2040453"><ele>1277.0</ele><time>2026-04-16T11:45:59.033Z</time></trkpt><trkpt lat="44.3093625" lon="10.2039549"><ele>1275.9999999999998</ele><time>2026-04-16T11:46:07.088Z</time></trkpt><trkpt lat="44.3094184" lon="10.203894"><ele>1275.0</ele><time>2026-04-16T11:46:14.036Z</time></trkpt><trkpt lat="44.309476" lon="10.2038435"><ele>1274.0</ele><time>2026-04-16T11:46:20.061Z</time></trkpt><trkpt lat="44.3095234" lon="10.203777"><ele>1273.0</ele><time>2026-04-16T11:46:27.036Z</time></trkpt><trkpt lat="44.3095731" lon="10.2037198"><ele>1272.0</ele><time>2026-04-16T11:46:32.991Z</time></trkpt><trkpt lat="44.3096262" lon="10.2036648"><ele>1270.9999999999998</ele><time>2026-04-16T11:46:39.035Z</time></trkpt><trkpt lat="44.3096813" lon="10.2036075"><ele>1270.0</ele><time>2026-04-16T11:46:44.946Z</time></trkpt><trkpt lat="44.3097327" lon="10.2035562"><ele>1270.8571428571427</ele><time>2026-04-16T11:46:51.036Z</time></trkpt><trkpt lat="44.3097852" lon="10.2035008"><ele>1271.7142857142858</ele><time>2026-04-16T11:46:58.035Z</time></trkpt><trkpt lat="44.3098493" lon="10.2034489"><ele>1272.5714285714284</ele><time>2026-04-16T11:47:04.035Z</time></trkpt><trkpt lat="44.3099095" lon="10.2034183"><ele>1273.4285714285713</ele><time>2026-04-16T11:47:09.948Z</time></trkpt><trkpt lat="44.309975" lon="10.203389"><ele>1274.2857142857142</ele><time>2026-04-16T11:47:16.036Z</time></trkpt><trkpt lat="44.3100207" lon="10.2033123"><ele>1275.142857142857</ele><time>2026-04-16T11:47:21.97Z</time></trkpt><trkpt lat="44.3100651" lon="10.2032406"><ele>1276.0</ele><time>2026-04-16T11:47:28.035Z</time></trkpt><trkpt lat="44.3101245" lon="10.2031924"><ele>1276.2857142857144</ele><time>2026-04-16T11:47:34.036Z</time></trkpt><trkpt lat="44.3101736" lon="10.2031298"><ele>1276.5714285714284</ele><time>2026-04-16T11:47:39.993Z</time></trkpt><trkpt lat="44.3102387" lon="10.2030883"><ele>1276.857142857143</ele><time>2026-04-16T11:47:47.035Z</time></trkpt><trkpt lat="44.3102949" lon="10.2030443"><ele>1277.1428571428573</ele><time>2026-04-16T11:47:53.037Z</time></trkpt><trkpt lat="44.310359" lon="10.2030067"><ele>1277.4285714285716</ele><time>2026-04-16T11:48:00.035Z</time></trkpt><trkpt lat="44.3104251" lon="10.2029594"><ele>1277.7142857142858</ele><time>2026-04-16T11:48:07.035Z</time></trkpt><trkpt lat="44.3104847" lon="10.2029085"><ele>1278.0</ele><time>2026-04-16T11:48:14.035Z</time></trkpt><trkpt lat="44.3105411" lon="10.2028573"><ele>1279.0000000000002</ele><time>2026-04-16T11:48:21.009Z</time></trkpt><trkpt lat="44.3105911" lon="10.2027942"><ele>1280.0</ele><time>2026-04-16T11:48:27.068Z</time></trkpt><trkpt lat="44.3106395" lon="10.2027244"><ele>1281.0</ele><time>2026-04-16T11:48:34.067Z</time></trkpt><trkpt lat="44.3106882" lon="10.2026556"><ele>1282.0</ele><time>2026-04-16T11:48:41.035Z</time></trkpt><trkpt lat="44.3107421" lon="10.2026059"><ele>1283.0</ele><time>2026-04-16T11:48:47.035Z</time></trkpt><trkpt lat="44.3108082" lon="10.2025811"><ele>1284.0000000000002</ele><time>2026-04-16T11:48:54.069Z</time></trkpt><trkpt lat="44.3108715" lon="10.2025837"><ele>1285.0</ele><time>2026-04-16T11:49:01.036Z</time></trkpt><trkpt lat="44.3109489" lon="10.2025923"><ele>1285.0000000000002</ele><time>2026-04-16T11:49:08.565Z</time></trkpt><trkpt lat="44.311016" lon="10.2026098"><ele>1285.0</ele><time>2026-04-16T11:49:14.995Z</time></trkpt><trkpt lat="44.3110848" lon="10.2025979"><ele>1285.0</ele><time>2026-04-16T11:49:22.035Z</time></trkpt><trkpt lat="44.3111485" lon="10.2026025"><ele>1285.0</ele><time>2026-04-16T11:49:29.036Z</time></trkpt><trkpt lat="44.3112196" lon="10.2026113"><ele>1285.0</ele><time>2026-04-16T11:49:37.036Z</time></trkpt><trkpt lat="44.3112817" lon="10.2026366"><ele>1285.0000000000002</ele><time>2026-04-16T11:49:45.035Z</time></trkpt><trkpt lat="44.3113383" lon="10.2026818"><ele>1285.0</ele><time>2026-04-16T11:49:53.068Z</time></trkpt><trkpt lat="44.3113997" lon="10.202722"><ele>1286.5714285714287</ele><time>2026-04-16T11:49:59.036Z</time></trkpt><trkpt lat="44.3114615" lon="10.202758"><ele>1288.142857142857</ele><time>2026-04-16T11:50:06.036Z</time></trkpt><trkpt lat="44.3115247" lon="10.2027582"><ele>1289.7142857142858</ele><time>2026-04-16T11:50:13.045Z</time></trkpt><trkpt lat="44.3115986" lon="10.2027183"><ele>1291.2857142857142</ele><time>2026-04-16T11:50:58.037Z</time></trkpt><trkpt lat="44.3116635" lon="10.2027524"><ele>1292.857142857143</ele><time>2026-04-16T11:51:38.036Z</time></trkpt><trkpt lat="44.3117281" lon="10.2027668"><ele>1294.4285714285716</ele><time>2026-04-16T11:51:46.036Z</time></trkpt><trkpt lat="44.3117969" lon="10.2027691"><ele>1296.0</ele><time>2026-04-16T11:51:52.036Z</time></trkpt><trkpt lat="44.3118603" lon="10.2027798"><ele>1296.0</ele><time>2026-04-16T11:51:58.037Z</time></trkpt><trkpt lat="44.3119247" lon="10.2028097"><ele>1296.0</ele><time>2026-04-16T11:52:04.037Z</time></trkpt><trkpt lat="44.3119883" lon="10.2028058"><ele>1296.0</ele><time>2026-04-16T11:52:12.037Z</time></trkpt><trkpt lat="44.3120457" lon="10.2027415"><ele>1296.0</ele><time>2026-04-16T11:52:17.047Z</time></trkpt><trkpt lat="44.312104" lon="10.2026783"><ele>1296.0</ele><time>2026-04-16T11:52:22.029Z</time></trkpt><trkpt lat="44.3121629" lon="10.2026199"><ele>1296.0</ele><time>2026-04-16T11:52:28.065Z</time></trkpt><trkpt lat="44.3122257" lon="10.2025831"><ele>1296.0</ele><time>2026-04-16T11:52:35.036Z</time></trkpt><trkpt lat="44.3122875" lon="10.2025462"><ele>1296.7142857142858</ele><time>2026-04-16T11:52:45.953Z</time></trkpt><trkpt lat="44.3123405" lon="10.2026234"><ele>1297.4285714285713</ele><time>2026-04-16T11:52:50.037Z</time></trkpt><trkpt lat="44.3123523" lon="10.2027101"><ele>1298.142857142857</ele><time>2026-04-16T11:52:54.047Z</time></trkpt><trkpt lat="44.3123181" lon="10.2027865"><ele>1298.857142857143</ele><time>2026-04-16T11:52:58.036Z</time></trkpt><trkpt lat="44.312292" lon="10.2028821"><ele>1299.5714285714287</ele><time>2026-04-16T11:53:10.036Z</time></trkpt><trkpt lat="44.3123245" lon="10.2029603"><ele>1300.2857142857142</ele><time>2026-04-16T11:53:14.037Z</time></trkpt><trkpt lat="44.3123698" lon="10.2030302"><ele>1301.0</ele><time>2026-04-16T11:53:20.036Z</time></trkpt><trkpt lat="44.3124117" lon="10.2031005"><ele>1299.0</ele><time>2026-04-16T11:53:27.054Z</time></trkpt><trkpt lat="44.3124595" lon="10.2031654"><ele>1297.0</ele><time>2026-04-16T11:53:32.993Z</time></trkpt><trkpt lat="44.3125147" lon="10.203214"><ele>1295.0</ele><time>2026-04-16T11:53:39.036Z</time></trkpt><trkpt lat="44.3125635" lon="10.2032789"><ele>1293.0</ele><time>2026-04-16T11:53:45.037Z</time></trkpt><trkpt lat="44.3126098" lon="10.2033555"><ele>1291.0</ele><time>2026-04-16T11:53:51.036Z</time></trkpt><trkpt lat="44.3126368" lon="10.203448"><ele>1289.0</ele><time>2026-04-16T11:53:57.037Z</time></trkpt><trkpt lat="44.3126546" lon="10.203544"><ele>1287.0</ele><time>2026-04-16T11:54:04.036Z</time></trkpt><trkpt lat="44.3126832" lon="10.2036249"><ele>1287.0</ele><time>2026-04-16T11:54:10.036Z</time></trkpt><trkpt lat="44.3127085" lon="10.2037118"><ele>1287.0</ele><time>2026-04-16T11:54:16.036Z</time></trkpt><trkpt lat="44.3127412" lon="10.2037936"><ele>1287.0</ele><time>2026-04-16T11:54:22.078Z</time></trkpt><trkpt lat="44.3127775" lon="10.2038672"><ele>1287.0</ele><time>2026-04-16T11:54:28.069Z</time></trkpt><trkpt lat="44.3128217" lon="10.2039319"><ele>1287.0</ele><time>2026-04-16T11:54:34.068Z</time></trkpt><trkpt lat="44.312879" lon="10.2039909"><ele>1287.0</ele><time>2026-04-16T11:54:41.059Z</time></trkpt><trkpt lat="44.3129253" lon="10.2040633"><ele>1287.0</ele><time>2026-04-16T11:54:49.068Z</time></trkpt><trkpt lat="44.3129387" lon="10.2041558"><ele>1285.4285714285713</ele><time>2026-04-16T11:54:57.051Z</time></trkpt><trkpt lat="44.3129292" lon="10.2042611"><ele>1283.857142857143</ele><time>2026-04-16T11:55:06.037Z</time></trkpt><trkpt lat="44.3129184" lon="10.2043504"><ele>1282.2857142857142</ele><time>2026-04-16T11:55:15.063Z</time></trkpt><trkpt lat="44.3129304" lon="10.2044489"><ele>1280.7142857142858</ele><time>2026-04-16T11:55:27.037Z</time></trkpt><trkpt lat="44.312959" lon="10.2045276"><ele>1279.142857142857</ele><time>2026-04-16T11:55:36.059Z</time></trkpt><trkpt lat="44.3129783" lon="10.2046219"><ele>1277.5714285714287</ele><time>2026-04-16T11:55:45.036Z</time></trkpt><trkpt lat="44.312993" lon="10.2047152"><ele>1276.0</ele><time>2026-04-16T11:55:52.974Z</time></trkpt><trkpt lat="44.3130065" lon="10.2048081"><ele>1275.0</ele><time>2026-04-16T11:56:00.026Z</time></trkpt><trkpt lat="44.3130274" lon="10.2049048"><ele>1274.0</ele><time>2026-04-16T11:56:06.036Z</time></trkpt><trkpt lat="44.3130618" lon="10.2050055"><ele>1273.0</ele><time>2026-04-16T11:56:13.005Z</time></trkpt><trkpt lat="44.3130956" lon="10.2050992"><ele>1272.0</ele><time>2026-04-16T11:56:20.036Z</time></trkpt><trkpt lat="44.3131421" lon="10.2051784"><ele>1271.0</ele><time>2026-04-16T11:56:26.037Z</time></trkpt><trkpt lat="44.3131992" lon="10.2052383"><ele>1270.0</ele><time>2026-04-16T11:56:32.037Z</time></trkpt><trkpt lat="44.3132566" lon="10.2052982"><ele>1269.0</ele><time>2026-04-16T11:56:39.036Z</time></trkpt><trkpt lat="44.3133052" lon="10.2053725"><ele>1272.7142857142858</ele><time>2026-04-16T11:56:44.946Z</time></trkpt><trkpt lat="44.3133416" lon="10.2054606"><ele>1276.4285714285713</ele><time>2026-04-16T11:56:50.978Z</time></trkpt><trkpt lat="44.3133859" lon="10.2055339"><ele>1280.142857142857</ele><time>2026-04-16T11:56:58.066Z</time></trkpt><trkpt lat="44.313447" lon="10.2055598"><ele>1283.857142857143</ele><time>2026-04-16T11:57:04.061Z</time></trkpt><trkpt lat="44.3135122" lon="10.2056009"><ele>1287.5714285714284</ele><time>2026-04-16T11:57:11.037Z</time></trkpt><trkpt lat="44.3135769" lon="10.2056234"><ele>1291.2857142857142</ele><time>2026-04-16T11:57:18.037Z</time></trkpt><trkpt lat="44.3136412" lon="10.2055909"><ele>1295.0</ele><time>2026-04-16T11:57:24.053Z</time></trkpt><trkpt lat="44.3137034" lon="10.2055718"><ele>1295.0</ele><time>2026-04-16T11:57:30.071Z</time></trkpt><trkpt lat="44.3137742" lon="10.2055681"><ele>1295.0</ele><time>2026-04-16T11:57:38.036Z</time></trkpt><trkpt lat="44.3138416" lon="10.2055545"><ele>1295.0</ele><time>2026-04-16T11:57:44.071Z</time></trkpt><trkpt lat="44.3139013" lon="10.2055255"><ele>1295.0</ele><time>2026-04-16T11:57:50.064Z</time></trkpt><trkpt lat="44.3139627" lon="10.2054977"><ele>1295.0</ele><time>2026-04-16T11:57:57.071Z</time></trkpt><trkpt lat="44.3140306" lon="10.2054748"><ele>1295.0</ele><time>2026-04-16T11:58:03.052Z</time></trkpt><trkpt lat="44.3141016" lon="10.2054448"><ele>1295.0</ele><time>2026-04-16T11:58:10.051Z</time></trkpt><trkpt lat="44.314181" lon="10.2054062"><ele>1296.5714285714287</ele><time>2026-04-16T11:58:18.083Z</time></trkpt><trkpt lat="44.3142353" lon="10.2053532"><ele>1298.142857142857</ele><time>2026-04-16T11:58:25.983Z</time></trkpt><trkpt lat="44.3142909" lon="10.2053023"><ele>1299.7142857142858</ele><time>2026-04-16T11:58:32.036Z</time></trkpt><trkpt lat="44.314345" lon="10.2052569"><ele>1301.2857142857142</ele><time>2026-04-16T11:58:39.037Z</time></trkpt><trkpt lat="44.3144105" lon="10.2052278"><ele>1302.857142857143</ele><time>2026-04-16T11:58:46.036Z</time></trkpt><trkpt lat="44.3144767" lon="10.2052155"><ele>1304.4285714285716</ele><time>2026-04-16T11:58:52.036Z</time></trkpt><trkpt lat="44.3145249" lon="10.2051463"><ele>1306.0</ele><time>2026-04-16T11:58:58.096Z</time></trkpt><trkpt lat="44.3145723" lon="10.2050745"><ele>1306.0000000000002</ele><time>2026-04-16T11:59:05.053Z</time></trkpt><trkpt lat="44.3146386" lon="10.2050359"><ele>1306.0</ele><time>2026-04-16T11:59:12.037Z</time></trkpt><trkpt lat="44.3147036" lon="10.20505"><ele>1306.0</ele><time>2026-04-16T11:59:18.071Z</time></trkpt><trkpt lat="44.3147576" lon="10.2051089"><ele>1306.0</ele><time>2026-04-16T11:59:31.12Z</time></trkpt><trkpt lat="44.3148147" lon="10.2051701"><ele>1306.0</ele><time>2026-04-16T11:59:36.036Z</time></trkpt><trkpt lat="44.3148155" lon="10.2052688"><ele>1306.0000000000002</ele><time>2026-04-16T11:59:47.07Z</time></trkpt><trkpt lat="44.3147879" lon="10.2053561"><ele>1306.0</ele><time>2026-04-16T11:59:51.036Z</time></trkpt><trkpt lat="44.3147574" lon="10.2054331"><ele>1306.1428571428573</ele><time>2026-04-16T11:59:56.967Z</time></trkpt><trkpt lat="44.3147987" lon="10.2055024"><ele>1306.2857142857142</ele><time>2026-04-16T12:00:05.036Z</time></trkpt><trkpt lat="44.3147812" lon="10.205587"><ele>1306.4285714285716</ele><time>2026-04-16T12:00:14.067Z</time></trkpt><trkpt lat="44.314822" lon="10.2056856"><ele>1306.5714285714287</ele><time>2026-04-16T12:00:32.037Z</time></trkpt><trkpt lat="44.314865" lon="10.2057561"><ele>1306.7142857142858</ele><time>2026-04-16T12:00:39.036Z</time></trkpt><trkpt lat="44.3149129" lon="10.205817"><ele>1306.857142857143</ele><time>2026-04-16T12:00:46.037Z</time></trkpt><trkpt lat="44.3149222" lon="10.2059057"><ele>1307.0</ele><time>2026-04-16T12:01:07.037Z</time></trkpt><trkpt lat="44.3150164" lon="10.2060285"><ele>1306.142857142857</ele><time>2026-04-16T12:01:34.036Z</time></trkpt><trkpt lat="44.3150649" lon="10.2060848"><ele>1305.2857142857144</ele><time>2026-04-16T12:01:44.036Z</time></trkpt><trkpt lat="44.3151002" lon="10.2061578"><ele>1304.4285714285716</ele><time>2026-04-16T12:01:54.038Z</time></trkpt><trkpt lat="44.3151365" lon="10.2062432"><ele>1303.5714285714284</ele><time>2026-04-16T12:02:05.036Z</time></trkpt><trkpt lat="44.315194" lon="10.206315"><ele>1302.7142857142858</ele><time>2026-04-16T12:02:13.037Z</time></trkpt><trkpt lat="44.315253" lon="10.2063555"><ele>1301.857142857143</ele><time>2026-04-16T12:02:30.036Z</time></trkpt><trkpt lat="44.3152991" lon="10.2064225"><ele>1301.0</ele><time>2026-04-16T12:02:41.036Z</time></trkpt><trkpt lat="44.3154072" lon="10.2065446"><ele>1299.857142857143</ele><time>2026-04-16T12:03:03.037Z</time></trkpt><trkpt lat="44.3154784" lon="10.2065377"><ele>1298.7142857142858</ele><time>2026-04-16T12:03:08.037Z</time></trkpt><trkpt lat="44.3155405" lon="10.2065109"><ele>1297.5714285714284</ele><time>2026-04-16T12:03:17.048Z</time></trkpt><trkpt lat="44.3155899" lon="10.2065662"><ele>1296.4285714285716</ele><time>2026-04-16T12:03:38.037Z</time></trkpt><trkpt lat="44.3155979" lon="10.2066542"><ele>1295.2857142857144</ele><time>2026-04-16T12:03:44.036Z</time></trkpt><trkpt lat="44.315615" lon="10.2067396"><ele>1294.142857142857</ele><time>2026-04-16T12:03:52.037Z</time></trkpt><trkpt lat="44.315609" lon="10.2068297"><ele>1293.0</ele><time>2026-04-16T12:03:59.036Z</time></trkpt><trkpt lat="44.3155617" lon="10.2069082"><ele>1298.0</ele><time>2026-04-16T12:04:34.031Z</time></trkpt><trkpt lat="44.3155767" lon="10.2069941"><ele>1303.0</ele><time>2026-04-16T12:04:41.037Z</time></trkpt><trkpt lat="44.3155827" lon="10.2070842"><ele>1308.0</ele><time>2026-04-16T12:04:49.054Z</time></trkpt><trkpt lat="44.315618" lon="10.2071701"><ele>1313.0</ele><time>2026-04-16T12:04:57.069Z</time></trkpt><trkpt lat="44.3156343" lon="10.2072569"><ele>1318.0</ele><time>2026-04-16T12:05:07.147Z</time></trkpt><trkpt lat="44.3156544" lon="10.2073465"><ele>1323.0</ele><time>2026-04-16T12:05:16.068Z</time></trkpt><trkpt lat="44.3156944" lon="10.2074173"><ele>1328.0</ele><time>2026-04-16T12:05:22.036Z</time></trkpt><trkpt lat="44.3157257" lon="10.2074954"><ele>1328.0</ele><time>2026-04-16T12:05:27.037Z</time></trkpt><trkpt lat="44.3157624" lon="10.2075763"><ele>1328.0</ele><time>2026-04-16T12:05:33.037Z</time></trkpt><trkpt lat="44.3157884" lon="10.207673"><ele>1328.0</ele><time>2026-04-16T12:05:41.036Z</time></trkpt><trkpt lat="44.3157898" lon="10.2077639"><ele>1328.0</ele><time>2026-04-16T12:05:48.037Z</time></trkpt><trkpt lat="44.3157876" lon="10.2078631"><ele>1328.0</ele><time>2026-04-16T12:05:56.068Z</time></trkpt><trkpt lat="44.3157804" lon="10.207959"><ele>1328.0</ele><time>2026-04-16T12:06:03.061Z</time></trkpt><trkpt lat="44.3157958" lon="10.2080467"><ele>1328.0</ele><time>2026-04-16T12:06:10.09Z</time></trkpt><trkpt lat="44.3158277" lon="10.2081261"><ele>1326.7142857142856</ele><time>2026-04-16T12:06:18.037Z</time></trkpt><trkpt lat="44.3158378" lon="10.2082148"><ele>1325.4285714285716</ele><time>2026-04-16T12:06:24.06Z</time></trkpt><trkpt lat="44.3158762" lon="10.2082998"><ele>1324.142857142857</ele><time>2026-04-16T12:06:30.072Z</time></trkpt><trkpt lat="44.3158859" lon="10.2083942"><ele>1322.8571428571427</ele><time>2026-04-16T12:06:38.038Z</time></trkpt><trkpt lat="44.3158901" lon="10.2084829"><ele>1321.5714285714284</ele><time>2026-04-16T12:06:44.067Z</time></trkpt><trkpt lat="44.3159272" lon="10.208564"><ele>1320.2857142857142</ele><time>2026-04-16T12:06:52.038Z</time></trkpt><trkpt lat="44.3159652" lon="10.2086438"><ele>1319.0</ele><time>2026-04-16T12:07:01.038Z</time></trkpt><trkpt lat="44.3159938" lon="10.2087313"><ele>1318.9999999999998</ele><time>2026-04-16T12:07:12.038Z</time></trkpt><trkpt lat="44.3160394" lon="10.2088078"><ele>1319.0</ele><time>2026-04-16T12:07:18.059Z</time></trkpt><trkpt lat="44.3160751" lon="10.2088818"><ele>1319.0</ele><time>2026-04-16T12:07:25.038Z</time></trkpt><trkpt lat="44.3161076" lon="10.2089576"><ele>1319.0</ele><time>2026-04-16T12:07:34.038Z</time></trkpt><trkpt lat="44.3161541" lon="10.2090182"><ele>1319.0</ele><time>2026-04-16T12:07:41.038Z</time></trkpt><trkpt lat="44.3161844" lon="10.2090962"><ele>1318.9999999999998</ele><time>2026-04-16T12:07:49.007Z</time></trkpt><trkpt lat="44.3162128" lon="10.2091785"><ele>1319.0</ele><time>2026-04-16T12:07:56.037Z</time></trkpt><trkpt lat="44.3162383" lon="10.2092706"><ele>1317.142857142857</ele><time>2026-04-16T12:08:03.037Z</time></trkpt><trkpt lat="44.3162781" lon="10.2093559"><ele>1315.2857142857142</ele><time>2026-04-16T12:08:11.072Z</time></trkpt><trkpt lat="44.3162411" lon="10.2094279"><ele>1313.4285714285716</ele><time>2026-04-16T12:08:20.037Z</time></trkpt><trkpt lat="44.3162394" lon="10.209527"><ele>1311.5714285714284</ele><time>2026-04-16T12:08:30.061Z</time></trkpt><trkpt lat="44.3162659" lon="10.2096102"><ele>1309.7142857142858</ele><time>2026-04-16T12:08:35.038Z</time></trkpt><trkpt lat="44.316293" lon="10.2096933"><ele>1307.857142857143</ele><time>2026-04-16T12:08:41.037Z</time></trkpt><trkpt lat="44.3163339" lon="10.209764"><ele>1306.0</ele><time>2026-04-16T12:08:48.975Z</time></trkpt><trkpt lat="44.3163814" lon="10.2098228"><ele>1310.2857142857144</ele><time>2026-04-16T12:08:56.098Z</time></trkpt><trkpt lat="44.3164308" lon="10.2098863"><ele>1314.5714285714287</ele><time>2026-04-16T12:09:03.038Z</time></trkpt><trkpt lat="44.3164854" lon="10.209949"><ele>1318.857142857143</ele><time>2026-04-16T12:09:09.028Z</time></trkpt><trkpt lat="44.3165266" lon="10.2100186"><ele>1323.1428571428573</ele><time>2026-04-16T12:09:19.071Z</time></trkpt><trkpt lat="44.3165599" lon="10.2100939"><ele>1327.4285714285716</ele><time>2026-04-16T12:09:31.112Z</time></trkpt><trkpt lat="44.3166162" lon="10.2101479"><ele>1331.7142857142858</ele><time>2026-04-16T12:09:42.038Z</time></trkpt><trkpt lat="44.3166726" lon="10.2101985"><ele>1336.0</ele><time>2026-04-16T12:09:55.9Z</time></trkpt><trkpt lat="44.3167258" lon="10.2102549"><ele>1336.0</ele><time>2026-04-16T12:10:06.082Z</time></trkpt><trkpt lat="44.3167779" lon="10.210311"><ele>1336.0</ele><time>2026-04-16T12:10:16.037Z</time></trkpt><trkpt lat="44.3168289" lon="10.2103666"><ele>1336.0</ele><time>2026-04-16T12:10:25.105Z</time></trkpt><trkpt lat="44.3168758" lon="10.2104302"><ele>1336.0</ele><time>2026-04-16T12:10:32.058Z</time></trkpt><trkpt lat="44.3169338" lon="10.2104732"><ele>1336.0</ele><time>2026-04-16T12:10:39.096Z</time></trkpt><trkpt lat="44.3169955" lon="10.21051"><ele>1336.0</ele><time>2026-04-16T12:10:47.05Z</time></trkpt><trkpt lat="44.3171048" lon="10.2105828"><ele>1336.0</ele><time>2026-04-16T12:11:10.038Z</time></trkpt><trkpt lat="44.3171723" lon="10.2106015"><ele>1336.0</ele><time>2026-04-16T12:11:17.037Z</time></trkpt><trkpt lat="44.3172365" lon="10.21061"><ele>1336.0</ele><time>2026-04-16T12:11:25.079Z</time></trkpt><trkpt lat="44.3173015" lon="10.210635"><ele>1336.0</ele><time>2026-04-16T12:11:32.057Z</time></trkpt><trkpt lat="44.3173613" lon="10.2106696"><ele>1336.0</ele><time>2026-04-16T12:11:40.988Z</time></trkpt><trkpt lat="44.3174082" lon="10.2107385"><ele>1336.0</ele><time>2026-04-16T12:11:48.051Z</time></trkpt><trkpt lat="44.3174774" lon="10.2107604"><ele>1336.0</ele><time>2026-04-16T12:11:54.037Z</time></trkpt><trkpt lat="44.3175466" lon="10.2107687"><ele>1336.4285714285713</ele><time>2026-04-16T12:12:00.064Z</time></trkpt><trkpt lat="44.3176096" lon="10.2107448"><ele>1336.857142857143</ele><time>2026-04-16T12:12:10.038Z</time></trkpt><trkpt lat="44.317684" lon="10.2107487"><ele>1337.2857142857142</ele><time>2026-04-16T12:12:17.038Z</time></trkpt><trkpt lat="44.3177514" lon="10.2107753"><ele>1337.7142857142858</ele><time>2026-04-16T12:12:24.037Z</time></trkpt><trkpt lat="44.3178013" lon="10.2108327"><ele>1338.142857142857</ele><time>2026-04-16T12:12:34.077Z</time></trkpt><trkpt lat="44.3178243" lon="10.2109175"><ele>1338.5714285714287</ele><time>2026-04-16T12:12:43.037Z</time></trkpt><trkpt lat="44.3178739" lon="10.2110305"><ele>1339.0</ele><time>2026-04-16T12:13:06.038Z</time></trkpt><trkpt lat="44.3179281" lon="10.2110927"><ele>1339.0</ele><time>2026-04-16T12:13:12.038Z</time></trkpt><trkpt lat="44.3179831" lon="10.211155"><ele>1339.0</ele><time>2026-04-16T12:13:18.043Z</time></trkpt><trkpt lat="44.3180362" lon="10.2112175"><ele>1339.0</ele><time>2026-04-16T12:13:27.058Z</time></trkpt><trkpt lat="44.3180998" lon="10.2112628"><ele>1339.0</ele><time>2026-04-16T12:13:34.038Z</time></trkpt><trkpt lat="44.3181661" lon="10.2113016"><ele>1339.0</ele><time>2026-04-16T12:13:40.066Z</time></trkpt><trkpt lat="44.318223" lon="10.2113529"><ele>1339.0</ele><time>2026-04-16T12:13:48.088Z</time></trkpt><trkpt lat="44.318286" lon="10.211375"><ele>1339.0</ele><time>2026-04-16T12:13:58.038Z</time></trkpt><trkpt lat="44.3183508" lon="10.211361"><ele>1341.857142857143</ele><time>2026-04-16T12:14:04.038Z</time></trkpt><trkpt lat="44.3184055" lon="10.2112935"><ele>1344.7142857142856</ele><time>2026-04-16T12:14:09.038Z</time></trkpt><trkpt lat="44.3184515" lon="10.2112205"><ele>1347.5714285714284</ele><time>2026-04-16T12:14:14.071Z</time></trkpt><trkpt lat="44.3184943" lon="10.2111524"><ele>1350.4285714285716</ele><time>2026-04-16T12:14:19.068Z</time></trkpt><trkpt lat="44.3185433" lon="10.2110713"><ele>1353.2857142857142</ele><time>2026-04-16T12:14:24.957Z</time></trkpt><trkpt lat="44.3185902" lon="10.210999"><ele>1356.142857142857</ele><time>2026-04-16T12:14:31.052Z</time></trkpt><trkpt lat="44.3186531" lon="10.2109618"><ele>1359.0</ele><time>2026-04-16T12:14:40.038Z</time></trkpt><trkpt lat="44.3187113" lon="10.2109174"><ele>1359.0</ele><time>2026-04-16T12:14:46.962Z</time></trkpt><trkpt lat="44.3187528" lon="10.2108468"><ele>1359.0</ele><time>2026-04-16T12:14:52.777Z</time></trkpt><trkpt lat="44.3187938" lon="10.2107715"><ele>1359.0</ele><time>2026-04-16T12:14:58.038Z</time></trkpt><trkpt lat="44.3188241" lon="10.210689"><ele>1359.0</ele><time>2026-04-16T12:15:03.958Z</time></trkpt><trkpt lat="44.3188566" lon="10.210611"><ele>1359.0</ele><time>2026-04-16T12:15:10.038Z</time></trkpt><trkpt lat="44.3188471" lon="10.210511"><ele>1359.0</ele><time>2026-04-16T12:15:17.038Z</time></trkpt><trkpt lat="44.3188252" lon="10.2104275"><ele>1359.0</ele><time>2026-04-16T12:15:24.068Z</time></trkpt><trkpt lat="44.3188895" lon="10.2104228"><ele>1358.2857142857142</ele><time>2026-04-16T12:15:32.037Z</time></trkpt><trkpt lat="44.3189232" lon="10.2103291"><ele>1357.5714285714284</ele><time>2026-04-16T12:15:36.038Z</time></trkpt><trkpt lat="44.3189231" lon="10.2102377"><ele>1356.8571428571427</ele><time>2026-04-16T12:15:42.037Z</time></trkpt><trkpt lat="44.3189563" lon="10.210147"><ele>1356.142857142857</ele><time>2026-04-16T12:15:50.064Z</time></trkpt><trkpt lat="44.3189972" lon="10.2100746"><ele>1355.4285714285713</ele><time>2026-04-16T12:15:55.037Z</time></trkpt><trkpt lat="44.3190314" lon="10.2099916"><ele>1354.7142857142856</ele><time>2026-04-16T12:16:02.005Z</time></trkpt><trkpt lat="44.3190493" lon="10.2098901"><ele>1354.0</ele><time>2026-04-16T12:16:18.068Z</time></trkpt><trkpt lat="44.3190806" lon="10.2098128"><ele>1356.2857142857142</ele><time>2026-04-16T12:16:24.037Z</time></trkpt><trkpt lat="44.3191337" lon="10.2097493"><ele>1358.5714285714284</ele><time>2026-04-16T12:16:32.037Z</time></trkpt><trkpt lat="44.3191309" lon="10.2096506"><ele>1360.8571428571427</ele><time>2026-04-16T12:16:41.982Z</time></trkpt><trkpt lat="44.3191222" lon="10.2095478"><ele>1363.142857142857</ele><time>2026-04-16T12:16:48.037Z</time></trkpt><trkpt lat="44.319088" lon="10.2094666"><ele>1365.4285714285716</ele><time>2026-04-16T12:17:01.078Z</time></trkpt><trkpt lat="44.3191185" lon="10.2093796"><ele>1367.7142857142856</ele><time>2026-04-16T12:17:07.073Z</time></trkpt><trkpt lat="44.3191664" lon="10.2092917"><ele>1370.0</ele><time>2026-04-16T12:17:15.038Z</time></trkpt><trkpt lat="44.3192097" lon="10.2092194"><ele>1370.0</ele><time>2026-04-16T12:17:20.051Z</time></trkpt><trkpt lat="44.3192743" lon="10.2091946"><ele>1370.0</ele><time>2026-04-16T12:17:25.973Z</time></trkpt><trkpt lat="44.3193282" lon="10.2091403"><ele>1370.0</ele><time>2026-04-16T12:17:31.037Z</time></trkpt><trkpt lat="44.3193728" lon="10.2090643"><ele>1370.0</ele><time>2026-04-16T12:17:38.037Z</time></trkpt><trkpt lat="44.3193718" lon="10.2089726"><ele>1370.0</ele><time>2026-04-16T12:17:57.038Z</time></trkpt><trkpt lat="44.3193974" lon="10.2088852"><ele>1370.0</ele><time>2026-04-16T12:18:05.039Z</time></trkpt><trkpt lat="44.3194174" lon="10.2088004"><ele>1370.0</ele><time>2026-04-16T12:18:19.039Z</time></trkpt><trkpt lat="44.319412" lon="10.208697"><ele>1373.5714285714284</ele><time>2026-04-16T12:18:29.03Z</time></trkpt><trkpt lat="44.3194318" lon="10.2085977"><ele>1377.1428571428573</ele><time>2026-04-16T12:18:34.039Z</time></trkpt><trkpt lat="44.3194695" lon="10.2085145"><ele>1380.7142857142858</ele><time>2026-04-16T12:18:43.06Z</time></trkpt><trkpt lat="44.3195171" lon="10.2084506"><ele>1384.2857142857142</ele><time>2026-04-16T12:18:50.038Z</time></trkpt><trkpt lat="44.3195822" lon="10.2084207"><ele>1387.8571428571427</ele><time>2026-04-16T12:18:57.985Z</time></trkpt><trkpt lat="44.3196073" lon="10.2083393"><ele>1391.4285714285716</ele><time>2026-04-16T12:19:09.038Z</time></trkpt><trkpt lat="44.3196252" lon="10.2082497"><ele>1395.0</ele><time>2026-04-16T12:19:19.038Z</time></trkpt><trkpt lat="44.319611" lon="10.2081553"><ele>1393.857142857143</ele><time>2026-04-16T12:19:32.038Z</time></trkpt><trkpt lat="44.3196575" lon="10.2080856"><ele>1392.7142857142856</ele><time>2026-04-16T12:19:37.039Z</time></trkpt><trkpt lat="44.3197242" lon="10.208059"><ele>1391.5714285714284</ele><time>2026-04-16T12:19:44.007Z</time></trkpt><trkpt lat="44.3197815" lon="10.2080063"><ele>1390.4285714285716</ele><time>2026-04-16T12:19:50.99Z</time></trkpt><trkpt lat="44.3198364" lon="10.2079515"><ele>1389.2857142857142</ele><time>2026-04-16T12:20:02.038Z</time></trkpt><trkpt lat="44.3198852" lon="10.2078885"><ele>1388.142857142857</ele><time>2026-04-16T12:20:11.037Z</time></trkpt><trkpt lat="44.3199382" lon="10.2078265"><ele>1387.0</ele><time>2026-04-16T12:20:22.039Z</time></trkpt><trkpt lat="44.3199896" lon="10.2077742"><ele>1387.0</ele><time>2026-04-16T12:20:33.039Z</time></trkpt><trkpt lat="44.3200417" lon="10.2077143"><ele>1387.0</ele><time>2026-04-16T12:20:44.038Z</time></trkpt><trkpt lat="44.320093" lon="10.20765"><ele>1387.0</ele><time>2026-04-16T12:20:52.039Z</time></trkpt><trkpt lat="44.3201521" lon="10.2075975"><ele>1387.0</ele><time>2026-04-16T12:21:00.069Z</time></trkpt><trkpt lat="44.3202087" lon="10.2075415"><ele>1387.0</ele><time>2026-04-16T12:21:07.069Z</time></trkpt><trkpt lat="44.3202662" lon="10.2075039"><ele>1387.0</ele><time>2026-04-16T12:21:21.064Z</time></trkpt><trkpt lat="44.32032" lon="10.2074521"><ele>1387.0</ele><time>2026-04-16T12:21:30.974Z</time></trkpt><trkpt lat="44.3203459" lon="10.2073526"><ele>1390.7142857142858</ele><time>2026-04-16T12:21:39.038Z</time></trkpt><trkpt lat="44.3203644" lon="10.2072684"><ele>1394.4285714285713</ele><time>2026-04-16T12:21:47.075Z</time></trkpt><trkpt lat="44.3203943" lon="10.2071843"><ele>1398.142857142857</ele><time>2026-04-16T12:21:56.039Z</time></trkpt><trkpt lat="44.3204309" lon="10.2071061"><ele>1401.857142857143</ele><time>2026-04-16T12:22:05.039Z</time></trkpt><trkpt lat="44.3204712" lon="10.2070277"><ele>1405.5714285714287</ele><time>2026-04-16T12:22:13.039Z</time></trkpt><trkpt lat="44.3204865" lon="10.2069405"><ele>1409.2857142857142</ele><time>2026-04-16T12:22:22.038Z</time></trkpt><trkpt lat="44.3205145" lon="10.206853"><ele>1413.0</ele><time>2026-04-16T12:22:39.039Z</time></trkpt><trkpt lat="44.3205311" lon="10.2067672"><ele>1410.7142857142858</ele><time>2026-04-16T12:22:46.039Z</time></trkpt><trkpt lat="44.3205979" lon="10.2067249"><ele>1408.4285714285716</ele><time>2026-04-16T12:22:54.039Z</time></trkpt><trkpt lat="44.3206325" lon="10.2066463"><ele>1406.1428571428573</ele><time>2026-04-16T12:23:02.152Z</time></trkpt><trkpt lat="44.320664" lon="10.2065603"><ele>1403.857142857143</ele><time>2026-04-16T12:23:13.039Z</time></trkpt><trkpt lat="44.3206989" lon="10.2064793"><ele>1401.5714285714287</ele><time>2026-04-16T12:23:22.041Z</time></trkpt><trkpt lat="44.320743" lon="10.206414"><ele>1399.2857142857144</ele><time>2026-04-16T12:23:30.058Z</time></trkpt><trkpt lat="44.3207786" lon="10.2063356"><ele>1397.0</ele><time>2026-04-16T12:23:58.039Z</time></trkpt><trkpt lat="44.3207858" lon="10.2062449"><ele>1397.0000000000002</ele><time>2026-04-16T12:24:13.038Z</time></trkpt><trkpt lat="44.3208442" lon="10.2061874"><ele>1397.0</ele><time>2026-04-16T12:24:20.039Z</time></trkpt><trkpt lat="44.3208688" lon="10.2061035"><ele>1397.0</ele><time>2026-04-16T12:24:37.969Z</time></trkpt><trkpt lat="44.3208957" lon="10.2060216"><ele>1397.0</ele><time>2026-04-16T12:24:53.038Z</time></trkpt><trkpt lat="44.3209397" lon="10.2059562"><ele>1397.0</ele><time>2026-04-16T12:25:03.061Z</time></trkpt><trkpt lat="44.3209841" lon="10.2058911"><ele>1397.0000000000002</ele><time>2026-04-16T12:25:10.038Z</time></trkpt><trkpt lat="44.3210353" lon="10.2058324"><ele>1397.0</ele><time>2026-04-16T12:25:27.038Z</time></trkpt><trkpt lat="44.3210796" lon="10.2057666"><ele>1397.0000000000002</ele><time>2026-04-16T12:25:36.044Z</time></trkpt><trkpt lat="44.3211012" lon="10.2056664"><ele>1397.0</ele><time>2026-04-16T12:25:42.038Z</time></trkpt><trkpt lat="44.321075" lon="10.2055777"><ele>1397.0</ele><time>2026-04-16T12:25:47.038Z</time></trkpt><trkpt lat="44.3210694" lon="10.205486"><ele>1397.0</ele><time>2026-04-16T12:25:59.038Z</time></trkpt><trkpt lat="44.3210739" lon="10.2053559"><ele>1397.0</ele><time>2026-04-16T12:26:38.038Z</time></trkpt><trkpt lat="44.3210613" lon="10.2052533"><ele>1397.0000000000002</ele><time>2026-04-16T12:26:43.039Z</time></trkpt><trkpt lat="44.3210995" lon="10.2051764"><ele>1397.0</ele><time>2026-04-16T12:26:52.039Z</time></trkpt><trkpt lat="44.3211426" lon="10.2051017"><ele>1400.1666666666667</ele><time>2026-04-16T12:27:16.039Z</time></trkpt><trkpt lat="44.3211812" lon="10.205018"><ele>1403.3333333333335</ele><time>2026-04-16T12:27:24.039Z</time></trkpt><trkpt lat="44.3212344" lon="10.2049524"><ele>1406.5</ele><time>2026-04-16T12:27:31.039Z</time></trkpt><trkpt lat="44.3212728" lon="10.2048779"><ele>1409.6666666666667</ele><time>2026-04-16T12:27:41.039Z</time></trkpt><trkpt lat="44.3213339" lon="10.2048271"><ele>1412.8333333333333</ele><time>2026-04-16T12:27:50.038Z</time></trkpt><trkpt lat="44.3214367" lon="10.2047279"><ele>1416.0</ele><time>2026-04-16T12:28:12.039Z</time></trkpt><trkpt lat="44.32148" lon="10.2046623"><ele>1416.2857142857144</ele><time>2026-04-16T12:28:21.039Z</time></trkpt><trkpt lat="44.3215093" lon="10.2045824"><ele>1416.5714285714284</ele><time>2026-04-16T12:28:29.967Z</time></trkpt><trkpt lat="44.3215122" lon="10.2044909"><ele>1416.857142857143</ele><time>2026-04-16T12:28:49.039Z</time></trkpt><trkpt lat="44.3214665" lon="10.2044216"><ele>1417.1428571428573</ele><time>2026-04-16T12:28:59.039Z</time></trkpt><trkpt lat="44.3213793" lon="10.2044194"><ele>1417.4285714285716</ele><time>2026-04-16T12:29:24.038Z</time></trkpt><trkpt lat="44.3213313" lon="10.2044813"><ele>1417.7142857142858</ele><time>2026-04-16T12:29:30.069Z</time></trkpt><trkpt lat="44.3212728" lon="10.2044453"><ele>1418.0</ele><time>2026-04-16T12:29:41.99Z</time></trkpt><trkpt lat="44.3212457" lon="10.2043637"><ele>1420.7142857142858</ele><time>2026-04-16T12:29:49.038Z</time></trkpt><trkpt lat="44.3212567" lon="10.2042768"><ele>1423.4285714285716</ele><time>2026-04-16T12:30:05.105Z</time></trkpt><trkpt lat="44.3212041" lon="10.2042069"><ele>1426.1428571428573</ele><time>2026-04-16T12:30:27.056Z</time></trkpt><trkpt lat="44.3211463" lon="10.2041572"><ele>1428.857142857143</ele><time>2026-04-16T12:30:32.042Z</time></trkpt><trkpt lat="44.3210897" lon="10.2041128"><ele>1431.5714285714284</ele><time>2026-04-16T12:30:38.082Z</time></trkpt><trkpt lat="44.3210593" lon="10.2040344"><ele>1434.2857142857144</ele><time>2026-04-16T12:32:11.038Z</time></trkpt><trkpt lat="44.3210794" lon="10.2039433"><ele>1437.0</ele><time>2026-04-16T12:32:18.038Z</time></trkpt><trkpt lat="44.3210801" lon="10.2038553"><ele>1439.5714285714287</ele><time>2026-04-16T12:32:22.039Z</time></trkpt><trkpt lat="44.3210562" lon="10.203769"><ele>1442.142857142857</ele><time>2026-04-16T12:32:36.038Z</time></trkpt><trkpt lat="44.3210093" lon="10.2037068"><ele>1444.7142857142858</ele><time>2026-04-16T12:32:46.071Z</time></trkpt><trkpt lat="44.3210068" lon="10.2036183"><ele>1447.2857142857142</ele><time>2026-04-16T12:32:56.039Z</time></trkpt><trkpt lat="44.3209769" lon="10.2035275"><ele>1449.8571428571427</ele><time>2026-04-16T12:33:05.04Z</time></trkpt><trkpt lat="44.3209708" lon="10.2034396"><ele>1452.4285714285713</ele><time>2026-04-16T12:33:44.039Z</time></trkpt><trkpt lat="44.3209291" lon="10.2033637"><ele>1455.0</ele><time>2026-04-16T12:34:24.04Z</time></trkpt><trkpt lat="44.3209047" lon="10.2032783"><ele>1455.0</ele><time>2026-04-16T12:34:41.04Z</time></trkpt><trkpt lat="44.3208848" lon="10.2031865"><ele>1455.0</ele><time>2026-04-16T12:34:57.04Z</time></trkpt><trkpt lat="44.320835" lon="10.203128"><ele>1455.0</ele><time>2026-04-16T12:35:09.04Z</time></trkpt><trkpt lat="44.3207901" lon="10.2030427"><ele>1455.0</ele><time>2026-04-16T12:35:38.029Z</time></trkpt><trkpt lat="44.3207505" lon="10.2029646"><ele>1455.0</ele><time>2026-04-16T12:35:54.04Z</time></trkpt><trkpt lat="44.3207703" lon="10.202839"><ele>1455.0</ele><time>2026-04-16T12:36:13.04Z</time></trkpt><trkpt lat="44.3207891" lon="10.2026706"><ele>1457.0</ele><time>2026-04-16T12:36:56.04Z</time></trkpt><trkpt lat="44.32073" lon="10.2026269"><ele>1459.0</ele><time>2026-04-16T12:37:03.073Z</time></trkpt><trkpt lat="44.3207071" lon="10.2025356"><ele>1461.0</ele><time>2026-04-16T12:38:01.04Z</time></trkpt><trkpt lat="44.3207059" lon="10.2024405"><ele>1463.0</ele><time>2026-04-16T12:38:21.04Z</time></trkpt><trkpt lat="44.3206926" lon="10.202352"><ele>1465.0</ele><time>2026-04-16T12:38:29.039Z</time></trkpt><trkpt lat="44.3206733" lon="10.202267"><ele>1467.0</ele><time>2026-04-16T12:38:46.04Z</time></trkpt><trkpt lat="44.3206742" lon="10.2021733"><ele>1469.0</ele><time>2026-04-16T12:38:57.039Z</time></trkpt><trkpt lat="44.3206825" lon="10.2020843"><ele>1470.5</ele><time>2026-04-16T12:39:05.039Z</time></trkpt><trkpt lat="44.3206489" lon="10.2019105"><ele>1472.0</ele><time>2026-04-16T12:39:30.008Z</time></trkpt><trkpt lat="44.320623" lon="10.201822"><ele>1473.5</ele><time>2026-04-16T12:39:38.04Z</time></trkpt><trkpt lat="44.3206026" lon="10.2017343"><ele>1475.0</ele><time>2026-04-16T12:39:47.04Z</time></trkpt><trkpt lat="44.3206082" lon="10.2016452"><ele>1476.5</ele><time>2026-04-16T12:39:56.04Z</time></trkpt><trkpt lat="44.3206306" lon="10.2015523"><ele>1478.0</ele><time>2026-04-16T12:40:09.04Z</time></trkpt><trkpt lat="44.3206286" lon="10.2014569"><ele>1479.142857142857</ele><time>2026-04-16T12:40:18.039Z</time></trkpt><trkpt lat="44.3206272" lon="10.201363"><ele>1480.2857142857142</ele><time>2026-04-16T12:40:27.04Z</time></trkpt><trkpt lat="44.3206134" lon="10.2012759"><ele>1481.4285714285716</ele><time>2026-04-16T12:40:34.987Z</time></trkpt><trkpt lat="44.3205933" lon="10.2011822"><ele>1482.5714285714284</ele><time>2026-04-16T12:40:43.05Z</time></trkpt><trkpt lat="44.3205613" lon="10.2011003"><ele>1483.7142857142856</ele><time>2026-04-16T12:40:50.039Z</time></trkpt><trkpt lat="44.3205309" lon="10.2010131"><ele>1484.857142857143</ele><time>2026-04-16T12:40:57.04Z</time></trkpt><trkpt lat="44.3205571" lon="10.200932"><ele>1486.0</ele><time>2026-04-16T12:41:08.068Z</time></trkpt><trkpt lat="44.3206077" lon="10.2008768"><ele>1486.0</ele><time>2026-04-16T12:41:26.007Z</time></trkpt><trkpt lat="44.3206285" lon="10.2007866"><ele>1486.0</ele><time>2026-04-16T12:41:34.039Z</time></trkpt><trkpt lat="44.3206207" lon="10.2006952"><ele>1486.0</ele><time>2026-04-16T12:41:42.084Z</time></trkpt><trkpt lat="44.3207179" lon="10.2006869"><ele>1486.0</ele><time>2026-04-16T12:42:21.04Z</time></trkpt><trkpt lat="44.3207316" lon="10.200591"><ele>1486.0</ele><time>2026-04-16T12:42:35.039Z</time></trkpt><trkpt lat="44.320716" lon="10.2004814"><ele>1486.0</ele><time>2026-04-16T12:42:52.039Z</time></trkpt><trkpt lat="44.3207404" lon="10.2003812"><ele>1487.4285714285716</ele><time>2026-04-16T12:43:00.039Z</time></trkpt><trkpt lat="44.3207821" lon="10.2002991"><ele>1488.8571428571427</ele><time>2026-04-16T12:43:05.04Z</time></trkpt><trkpt lat="44.3208061" lon="10.2002106"><ele>1490.2857142857142</ele><time>2026-04-16T12:43:16.04Z</time></trkpt><trkpt lat="44.320868" lon="10.2001926"><ele>1491.7142857142858</ele><time>2026-04-16T12:43:22.04Z</time></trkpt><trkpt lat="44.3208248" lon="10.2001122"><ele>1493.1428571428573</ele><time>2026-04-16T12:43:38.04Z</time></trkpt><trkpt lat="44.3207754" lon="10.2000136"><ele>1494.5714285714284</ele><time>2026-04-16T12:43:58.985Z</time></trkpt><trkpt lat="44.3207748" lon="10.199921"><ele>1496.0</ele><time>2026-04-16T12:44:05.04Z</time></trkpt><trkpt lat="44.3207548" lon="10.1998331"><ele>1497.1666666666667</ele><time>2026-04-16T12:44:13.04Z</time></trkpt><trkpt lat="44.3206857" lon="10.1996785"><ele>1498.3333333333335</ele><time>2026-04-16T12:44:35.086Z</time></trkpt><trkpt lat="44.3206686" lon="10.1995788"><ele>1499.5</ele><time>2026-04-16T12:44:41.06Z</time></trkpt><trkpt lat="44.320647" lon="10.1994917"><ele>1500.6666666666667</ele><time>2026-04-16T12:44:47.039Z</time></trkpt><trkpt lat="44.3206208" lon="10.1994038"><ele>1501.8333333333333</ele><time>2026-04-16T12:44:54.039Z</time></trkpt><trkpt lat="44.3206468" lon="10.1993164"><ele>1503.0</ele><time>2026-04-16T12:45:02.065Z</time></trkpt><trkpt lat="44.320641" lon="10.1992242"><ele>1503.0</ele><time>2026-04-16T12:45:11.04Z</time></trkpt><trkpt lat="44.320644" lon="10.1991309"><ele>1503.0</ele><time>2026-04-16T12:45:18.972Z</time></trkpt><trkpt lat="44.3206088" lon="10.1990458"><ele>1503.0</ele><time>2026-04-16T12:45:25.04Z</time></trkpt><trkpt lat="44.3206344" lon="10.1989533"><ele>1503.0</ele><time>2026-04-16T12:45:33.039Z</time></trkpt><trkpt lat="44.3206731" lon="10.1988771"><ele>1503.0</ele><time>2026-04-16T12:45:41.068Z</time></trkpt><trkpt lat="44.3207298" lon="10.1988221"><ele>1503.0</ele><time>2026-04-16T12:45:48.062Z</time></trkpt><trkpt lat="44.3207972" lon="10.1987806"><ele>1503.0</ele><time>2026-04-16T12:45:56.054Z</time></trkpt><trkpt lat="44.3208568" lon="10.19874"><ele>1503.0</ele><time>2026-04-16T12:46:03.04Z</time></trkpt><trkpt lat="44.3209131" lon="10.1986739"><ele>1503.0</ele><time>2026-04-16T12:46:10.039Z</time></trkpt><trkpt lat="44.3209455" lon="10.1985933"><ele>1503.0</ele><time>2026-04-16T12:46:16.038Z</time></trkpt><trkpt lat="44.3209762" lon="10.1985084"><ele>1503.0</ele><time>2026-04-16T12:46:22.025Z</time></trkpt><trkpt lat="44.3210138" lon="10.1984315"><ele>1503.0</ele><time>2026-04-16T12:46:29.04Z</time></trkpt><trkpt lat="44.321056" lon="10.1983658"><ele>1503.0</ele><time>2026-04-16T12:46:37.04Z</time></trkpt><trkpt lat="44.3211067" lon="10.1982935"><ele>1503.0</ele><time>2026-04-16T12:47:00.04Z</time></trkpt><trkpt lat="44.3211063" lon="10.1982033"><ele>1503.0</ele><time>2026-04-16T12:47:04.039Z</time></trkpt><trkpt lat="44.3211257" lon="10.1981088"><ele>1503.0</ele><time>2026-04-16T12:47:10.039Z</time></trkpt><trkpt lat="44.3211679" lon="10.1980392"><ele>1503.0</ele><time>2026-04-16T12:47:15.989Z</time></trkpt><trkpt lat="44.3212067" lon="10.1979621"><ele>1503.0</ele><time>2026-04-16T12:47:22.04Z</time></trkpt><trkpt lat="44.321244" lon="10.1978798"><ele>1503.0</ele><time>2026-04-16T12:47:28.04Z</time></trkpt><trkpt lat="44.3212732" lon="10.1978008"><ele>1503.0</ele><time>2026-04-16T12:47:35.039Z</time></trkpt><trkpt lat="44.3213327" lon="10.1977662"><ele>1503.0</ele><time>2026-04-16T12:47:45.074Z</time></trkpt><trkpt lat="44.3213622" lon="10.1976817"><ele>1503.0</ele><time>2026-04-16T12:47:53.039Z</time></trkpt><trkpt lat="44.321368" lon="10.197589"><ele>1503.0</ele><time>2026-04-16T12:48:00.04Z</time></trkpt><trkpt lat="44.3213214" lon="10.1975264"><ele>1503.0</ele><time>2026-04-16T12:48:05.059Z</time></trkpt><trkpt lat="44.3212528" lon="10.1975715"><ele>1503.0</ele><time>2026-04-16T12:48:29.04Z</time></trkpt><trkpt lat="44.3211928" lon="10.1975411"><ele>1503.0</ele><time>2026-04-16T12:50:11.04Z</time></trkpt><trkpt lat="44.3212698" lon="10.1975279"><ele>1503.0</ele><time>2026-04-16T12:51:24.04Z</time></trkpt><trkpt lat="44.3212148" lon="10.1975709"><ele>1503.0</ele><time>2026-04-16T12:52:08.069Z</time></trkpt></trkseg><trkseg><trkpt lat="44.3212493" lon="10.1976794"><ele>1503.0</ele><time>2026-04-16T13:31:49.045Z</time></trkpt><trkpt lat="44.3212749" lon="10.1977745"><ele>1503.0</ele><time>2026-04-16T13:31:54.045Z</time></trkpt><trkpt lat="44.3212583" lon="10.1978697"><ele>1503.0</ele><time>2026-04-16T13:31:59.044Z</time></trkpt><trkpt lat="44.3212012" lon="10.1979087"><ele>1503.0</ele><time>2026-04-16T13:32:04.05Z</time></trkpt><trkpt lat="44.3211576" lon="10.1979792"><ele>1503.0</ele><time>2026-04-16T13:32:10.044Z</time></trkpt><trkpt lat="44.3211728" lon="10.1980684"><ele>1503.0</ele><time>2026-04-16T13:32:33.044Z</time></trkpt><trkpt lat="44.3211425" lon="10.198147"><ele>1503.0</ele><time>2026-04-16T13:32:39.045Z</time></trkpt><trkpt lat="44.3210972" lon="10.1982146"><ele>1503.0</ele><time>2026-04-16T13:32:44.985Z</time></trkpt><trkpt lat="44.3210595" lon="10.1982932"><ele>1503.0</ele><time>2026-04-16T13:32:52.045Z</time></trkpt><trkpt lat="44.3210192" lon="10.1983617"><ele>1503.0</ele><time>2026-04-16T13:33:00.045Z</time></trkpt><trkpt lat="44.3209648" lon="10.1984094"><ele>1503.0</ele><time>2026-04-16T13:33:04.045Z</time></trkpt><trkpt lat="44.3209505" lon="10.1985053"><ele>1503.0</ele><time>2026-04-16T13:33:13.045Z</time></trkpt><trkpt lat="44.3209326" lon="10.1986062"><ele>1503.0</ele><time>2026-04-16T13:33:18.044Z</time></trkpt><trkpt lat="44.3208879" lon="10.1986711"><ele>1503.0</ele><time>2026-04-16T13:33:23.045Z</time></trkpt><trkpt lat="44.3208383" lon="10.1987468"><ele>1503.0</ele><time>2026-04-16T13:33:29.044Z</time></trkpt><trkpt lat="44.3207806" lon="10.1988056"><ele>1503.0</ele><time>2026-04-16T13:33:35.044Z</time></trkpt><trkpt lat="44.3207195" lon="10.1988655"><ele>1503.0</ele><time>2026-04-16T13:33:41.045Z</time></trkpt><trkpt lat="44.3206752" lon="10.1989355"><ele>1503.0</ele><time>2026-04-16T13:33:45.924Z</time></trkpt><trkpt lat="44.3206233" lon="10.1990107"><ele>1503.0</ele><time>2026-04-16T13:33:51.934Z</time></trkpt><trkpt lat="44.320581" lon="10.1990905"><ele>1503.0</ele><time>2026-04-16T13:33:57.95Z</time></trkpt><trkpt lat="44.3205747" lon="10.1991816"><ele>1503.0</ele><time>2026-04-16T13:34:03.065Z</time></trkpt><trkpt lat="44.3205924" lon="10.1992771"><ele>1503.0</ele><time>2026-04-16T13:34:09.044Z</time></trkpt><trkpt lat="44.3205685" lon="10.1993599"><ele>1503.0</ele><time>2026-04-16T13:34:15.044Z</time></trkpt><trkpt lat="44.3205548" lon="10.1992707"><ele>1503.0</ele><time>2026-04-16T13:34:24.951Z</time></trkpt><trkpt lat="44.3204861" lon="10.1993286"><ele>1503.0</ele><time>2026-04-16T13:34:49.044Z</time></trkpt><trkpt lat="44.3204263" lon="10.1993898"><ele>1503.0</ele><time>2026-04-16T13:34:54.044Z</time></trkpt><trkpt lat="44.3204307" lon="10.1994887"><ele>1503.0</ele><time>2026-04-16T13:34:59.044Z</time></trkpt><trkpt lat="44.3203918" lon="10.1995731"><ele>1503.0</ele><time>2026-04-16T13:35:06.045Z</time></trkpt><trkpt lat="44.3203921" lon="10.1996657"><ele>1504.7142857142856</ele><time>2026-04-16T13:35:12.073Z</time></trkpt><trkpt lat="44.3203751" lon="10.1997578"><ele>1506.4285714285716</ele><time>2026-04-16T13:35:20.042Z</time></trkpt><trkpt lat="44.3203765" lon="10.1998514"><ele>1508.142857142857</ele><time>2026-04-16T13:35:28.045Z</time></trkpt><trkpt lat="44.3203536" lon="10.199944"><ele>1509.8571428571427</ele><time>2026-04-16T13:35:35.044Z</time></trkpt><trkpt lat="44.3203726" lon="10.2000311"><ele>1511.5714285714284</ele><time>2026-04-16T13:35:41.045Z</time></trkpt><trkpt lat="44.3203461" lon="10.2001133"><ele>1513.2857142857142</ele><time>2026-04-16T13:35:46.045Z</time></trkpt><trkpt lat="44.3202883" lon="10.2001539"><ele>1515.0</ele><time>2026-04-16T13:35:52.022Z</time></trkpt><trkpt lat="44.3202667" lon="10.2002509"><ele>1514.9999999999998</ele><time>2026-04-16T13:35:58.057Z</time></trkpt><trkpt lat="44.320233" lon="10.2003326"><ele>1515.0</ele><time>2026-04-16T13:36:04.044Z</time></trkpt><trkpt lat="44.3201844" lon="10.2003902"><ele>1515.0</ele><time>2026-04-16T13:36:11.057Z</time></trkpt><trkpt lat="44.3201366" lon="10.2004674"><ele>1515.0</ele><time>2026-04-16T13:36:18.04Z</time></trkpt><trkpt lat="44.3200667" lon="10.2004535"><ele>1515.0</ele><time>2026-04-16T13:36:25.045Z</time></trkpt><trkpt lat="44.3200233" lon="10.2005281"><ele>1514.9999999999998</ele><time>2026-04-16T13:36:31.045Z</time></trkpt><trkpt lat="44.3200014" lon="10.2006203"><ele>1515.0</ele><time>2026-04-16T13:36:37.045Z</time></trkpt><trkpt lat="44.320009" lon="10.2007099"><ele>1514.4285714285713</ele><time>2026-04-16T13:36:42.044Z</time></trkpt><trkpt lat="44.3200318" lon="10.2007995"><ele>1513.857142857143</ele><time>2026-04-16T13:36:48.045Z</time></trkpt><trkpt lat="44.3200211" lon="10.2008972"><ele>1513.2857142857142</ele><time>2026-04-16T13:36:55.044Z</time></trkpt><trkpt lat="44.3199967" lon="10.2009888"><ele>1512.7142857142858</ele><time>2026-04-16T13:37:01.843Z</time></trkpt><trkpt lat="44.3199877" lon="10.2010805"><ele>1512.142857142857</ele><time>2026-04-16T13:37:09.045Z</time></trkpt><trkpt lat="44.3199311" lon="10.201143"><ele>1511.5714285714284</ele><time>2026-04-16T13:37:16.045Z</time></trkpt><trkpt lat="44.319907" lon="10.2012319"><ele>1511.0</ele><time>2026-04-16T13:37:23.045Z</time></trkpt><trkpt lat="44.3199072" lon="10.2013279"><ele>1511.0</ele><time>2026-04-16T13:37:29.951Z</time></trkpt><trkpt lat="44.3199061" lon="10.201426"><ele>1511.0</ele><time>2026-04-16T13:37:36.045Z</time></trkpt><trkpt lat="44.319891" lon="10.2015142"><ele>1511.0</ele><time>2026-04-16T13:37:44.046Z</time></trkpt><trkpt lat="44.3199449" lon="10.2015744"><ele>1511.0</ele><time>2026-04-16T13:37:50.045Z</time></trkpt><trkpt lat="44.3199626" lon="10.2016658"><ele>1511.0</ele><time>2026-04-16T13:37:57.046Z</time></trkpt><trkpt lat="44.3199675" lon="10.201759"><ele>1511.0</ele><time>2026-04-16T13:38:04.045Z</time></trkpt><trkpt lat="44.3199483" lon="10.2018439"><ele>1511.0</ele><time>2026-04-16T13:38:11.073Z</time></trkpt><trkpt lat="44.3199423" lon="10.2019376"><ele>1511.0</ele><time>2026-04-16T13:38:22.045Z</time></trkpt><trkpt lat="44.3199466" lon="10.2020271"><ele>1511.0</ele><time>2026-04-16T13:38:31.07Z</time></trkpt><trkpt lat="44.3200098" lon="10.2020597"><ele>1511.0</ele><time>2026-04-16T13:38:38.057Z</time></trkpt><trkpt lat="44.3200225" lon="10.202155"><ele>1511.0</ele><time>2026-04-16T13:38:47.045Z</time></trkpt><trkpt lat="44.3200542" lon="10.202249"><ele>1511.0</ele><time>2026-04-16T13:38:55.046Z</time></trkpt><trkpt lat="44.3200413" lon="10.2023392"><ele>1511.0</ele><time>2026-04-16T13:39:00.045Z</time></trkpt><trkpt lat="44.3199995" lon="10.2024257"><ele>1511.0</ele><time>2026-04-16T13:39:05.071Z</time></trkpt><trkpt lat="44.3199505" lon="10.202483"><ele>1511.0</ele><time>2026-04-16T13:39:10.046Z</time></trkpt><trkpt lat="44.3199026" lon="10.2025526"><ele>1511.0</ele><time>2026-04-16T13:39:17.057Z</time></trkpt><trkpt lat="44.3198686" lon="10.2026272"><ele>1511.0</ele><time>2026-04-16T13:39:25.053Z</time></trkpt><trkpt lat="44.319839" lon="10.2027136"><ele>1511.0</ele><time>2026-04-16T13:39:32.056Z</time></trkpt><trkpt lat="44.3198127" lon="10.2027974"><ele>1511.0</ele><time>2026-04-16T13:39:44.045Z</time></trkpt><trkpt lat="44.3197711" lon="10.2028689"><ele>1511.0</ele><time>2026-04-16T13:39:56.046Z</time></trkpt><trkpt lat="44.3197089" lon="10.2028942"><ele>1511.0</ele><time>2026-04-16T13:40:05.046Z</time></trkpt><trkpt lat="44.3197355" lon="10.2029826"><ele>1511.0</ele><time>2026-04-16T13:40:15.057Z</time></trkpt><trkpt lat="44.319751" lon="10.2030679"><ele>1511.0</ele><time>2026-04-16T13:40:19.045Z</time></trkpt><trkpt lat="44.3197797" lon="10.2031547"><ele>1511.0</ele><time>2026-04-16T13:40:24.045Z</time></trkpt><trkpt lat="44.3196837" lon="10.2032621"><ele>1511.0</ele><time>2026-04-16T13:40:30.046Z</time></trkpt><trkpt lat="44.3196199" lon="10.203293"><ele>1511.0</ele><time>2026-04-16T13:40:33.046Z</time></trkpt><trkpt lat="44.3195582" lon="10.2032656"><ele>1511.0</ele><time>2026-04-16T13:40:41.045Z</time></trkpt><trkpt lat="44.3194936" lon="10.2032803"><ele>1514.0</ele><time>2026-04-16T13:41:00.046Z</time></trkpt><trkpt lat="44.3194393" lon="10.2033353"><ele>1517.0</ele><time>2026-04-16T13:41:06.045Z</time></trkpt><trkpt lat="44.3193922" lon="10.2033993"><ele>1520.0</ele><time>2026-04-16T13:41:13.046Z</time></trkpt><trkpt lat="44.3193243" lon="10.2034085"><ele>1523.0</ele><time>2026-04-16T13:41:23.045Z</time></trkpt><trkpt lat="44.3192618" lon="10.2034522"><ele>1526.0</ele><time>2026-04-16T13:41:32.046Z</time></trkpt><trkpt lat="44.3192145" lon="10.2035166"><ele>1529.0</ele><time>2026-04-16T13:41:40.045Z</time></trkpt><trkpt lat="44.3191519" lon="10.2035659"><ele>1532.0</ele><time>2026-04-16T13:41:48.045Z</time></trkpt><trkpt lat="44.3190825" lon="10.2035832"><ele>1532.0</ele><time>2026-04-16T13:41:55.045Z</time></trkpt><trkpt lat="44.3190204" lon="10.2035467"><ele>1532.0</ele><time>2026-04-16T13:42:03.045Z</time></trkpt><trkpt lat="44.3189559" lon="10.2035617"><ele>1532.0</ele><time>2026-04-16T13:42:10.071Z</time></trkpt><trkpt lat="44.318901" lon="10.2034991"><ele>1532.0</ele><time>2026-04-16T13:43:13.045Z</time></trkpt><trkpt lat="44.3188526" lon="10.203424"><ele>1532.0</ele><time>2026-04-16T13:43:18.045Z</time></trkpt><trkpt lat="44.3188051" lon="10.2033491"><ele>1532.0</ele><time>2026-04-16T13:43:25.045Z</time></trkpt><trkpt lat="44.3187662" lon="10.2032764"><ele>1532.0</ele><time>2026-04-16T13:43:33.046Z</time></trkpt><trkpt lat="44.3187568" lon="10.2031801"><ele>1530.0</ele><time>2026-04-16T13:43:40.046Z</time></trkpt><trkpt lat="44.3187225" lon="10.2030965"><ele>1528.0</ele><time>2026-04-16T13:43:49.045Z</time></trkpt><trkpt lat="44.3186602" lon="10.2030541"><ele>1526.0</ele><time>2026-04-16T13:43:56.046Z</time></trkpt><trkpt lat="44.3186498" lon="10.2029596"><ele>1524.0</ele><time>2026-04-16T13:44:03.046Z</time></trkpt><trkpt lat="44.3186264" lon="10.2028683"><ele>1522.0</ele><time>2026-04-16T13:44:11.045Z</time></trkpt><trkpt lat="44.318567" lon="10.2028214"><ele>1520.0</ele><time>2026-04-16T13:44:20.077Z</time></trkpt><trkpt lat="44.3185111" lon="10.2027647"><ele>1518.0</ele><time>2026-04-16T13:44:28.069Z</time></trkpt><trkpt lat="44.3184365" lon="10.2026895"><ele>1518.0</ele><time>2026-04-16T13:45:01.046Z</time></trkpt><trkpt lat="44.318371" lon="10.2027242"><ele>1518.0</ele><time>2026-04-16T13:45:11.046Z</time></trkpt><trkpt lat="44.3183012" lon="10.2027839"><ele>1518.0</ele><time>2026-04-16T13:45:37.045Z</time></trkpt><trkpt lat="44.3182362" lon="10.2028323"><ele>1518.0</ele><time>2026-04-16T13:45:43.048Z</time></trkpt><trkpt lat="44.318184" lon="10.2027787"><ele>1518.0</ele><time>2026-04-16T13:45:48.053Z</time></trkpt><trkpt lat="44.3181757" lon="10.2026772"><ele>1518.0</ele><time>2026-04-16T13:45:59.068Z</time></trkpt><trkpt lat="44.3181645" lon="10.2025902"><ele>1518.0</ele><time>2026-04-16T13:46:05.97Z</time></trkpt><trkpt lat="44.3181886" lon="10.2025007"><ele>1518.0</ele><time>2026-04-16T13:46:44.089Z</time></trkpt><trkpt lat="44.3180845" lon="10.2024872"><ele>1518.0</ele><time>2026-04-16T13:47:06.057Z</time></trkpt><trkpt lat="44.3180205" lon="10.202459"><ele>1518.0</ele><time>2026-04-16T13:47:24.046Z</time></trkpt><trkpt lat="44.3180047" lon="10.2023728"><ele>1518.0</ele><time>2026-04-16T13:47:32.046Z</time></trkpt><trkpt lat="44.3179495" lon="10.2023195"><ele>1518.0</ele><time>2026-04-16T13:47:43.047Z</time></trkpt><trkpt lat="44.3178841" lon="10.2022946"><ele>1518.0</ele><time>2026-04-16T13:47:51.904Z</time></trkpt><trkpt lat="44.3178169" lon="10.2022947"><ele>1518.0</ele><time>2026-04-16T13:48:12.046Z</time></trkpt><trkpt lat="44.3177531" lon="10.2022742"><ele>1514.857142857143</ele><time>2026-04-16T13:48:20.046Z</time></trkpt><trkpt lat="44.3177202" lon="10.2021961"><ele>1511.7142857142858</ele><time>2026-04-16T13:48:26.046Z</time></trkpt><trkpt lat="44.3176529" lon="10.2021878"><ele>1508.5714285714284</ele><time>2026-04-16T13:48:35.073Z</time></trkpt><trkpt lat="44.3175918" lon="10.2022299"><ele>1505.4285714285716</ele><time>2026-04-16T13:48:49.047Z</time></trkpt><trkpt lat="44.3175274" lon="10.2022237"><ele>1502.2857142857144</ele><time>2026-04-16T13:48:55.1Z</time></trkpt><trkpt lat="44.3175222" lon="10.202132"><ele>1499.142857142857</ele><time>2026-04-16T13:49:04.949Z</time></trkpt><trkpt lat="44.3174545" lon="10.2021098"><ele>1496.0</ele><time>2026-04-16T13:49:39.047Z</time></trkpt><trkpt lat="44.317404" lon="10.2020511"><ele>1496.0</ele><time>2026-04-16T13:49:48.089Z</time></trkpt><trkpt lat="44.3173296" lon="10.2020026"><ele>1496.0</ele><time>2026-04-16T13:50:13.047Z</time></trkpt><trkpt lat="44.3172838" lon="10.2019414"><ele>1496.0</ele><time>2026-04-16T13:50:22.068Z</time></trkpt><trkpt lat="44.3172205" lon="10.2019312"><ele>1496.0</ele><time>2026-04-16T13:50:39.047Z</time></trkpt><trkpt lat="44.317216" lon="10.2018429"><ele>1496.0</ele><time>2026-04-16T13:50:57.947Z</time></trkpt><trkpt lat="44.3171443" lon="10.2018051"><ele>1496.0</ele><time>2026-04-16T13:51:25.067Z</time></trkpt><trkpt lat="44.3170957" lon="10.2018783"><ele>1496.0</ele><time>2026-04-16T13:51:29.046Z</time></trkpt><trkpt lat="44.3170331" lon="10.2019205"><ele>1491.0</ele><time>2026-04-16T13:51:36.047Z</time></trkpt><trkpt lat="44.3169679" lon="10.2019276"><ele>1486.0</ele><time>2026-04-16T13:51:43.047Z</time></trkpt><trkpt lat="44.3169006" lon="10.2019156"><ele>1481.0</ele><time>2026-04-16T13:51:52.06Z</time></trkpt><trkpt lat="44.3168704" lon="10.2018223"><ele>1476.0</ele><time>2026-04-16T13:52:00.047Z</time></trkpt><trkpt lat="44.3168143" lon="10.2017778"><ele>1471.0</ele><time>2026-04-16T13:52:08.047Z</time></trkpt><trkpt lat="44.3167501" lon="10.2017702"><ele>1466.0</ele><time>2026-04-16T13:52:18.046Z</time></trkpt><trkpt lat="44.3166829" lon="10.2018215"><ele>1461.0</ele><time>2026-04-16T13:52:31.079Z</time></trkpt><trkpt lat="44.3166206" lon="10.2018439"><ele>1461.0</ele><time>2026-04-16T13:52:44.09Z</time></trkpt><trkpt lat="44.3165591" lon="10.2018009"><ele>1461.0</ele><time>2026-04-16T13:52:52.06Z</time></trkpt><trkpt lat="44.3164899" lon="10.2017975"><ele>1461.0</ele><time>2026-04-16T13:53:07.024Z</time></trkpt><trkpt lat="44.3164275" lon="10.2018268"><ele>1461.0</ele><time>2026-04-16T13:53:17.173Z</time></trkpt><trkpt lat="44.3163594" lon="10.2018192"><ele>1461.0</ele><time>2026-04-16T13:53:23.047Z</time></trkpt><trkpt lat="44.316301" lon="10.2017734"><ele>1461.0</ele><time>2026-04-16T13:53:38.078Z</time></trkpt><trkpt lat="44.316238" lon="10.2017392"><ele>1461.0</ele><time>2026-04-16T13:53:45.059Z</time></trkpt><trkpt lat="44.3161732" lon="10.2017662"><ele>1459.0</ele><time>2026-04-16T13:53:52.092Z</time></trkpt><trkpt lat="44.3161115" lon="10.2017458"><ele>1457.0</ele><time>2026-04-16T13:54:04.087Z</time></trkpt><trkpt lat="44.3160533" lon="10.2016848"><ele>1455.0</ele><time>2026-04-16T13:54:09.047Z</time></trkpt><trkpt lat="44.3159955" lon="10.2016329"><ele>1453.0</ele><time>2026-04-16T13:54:15.047Z</time></trkpt><trkpt lat="44.3159311" lon="10.2015908"><ele>1451.0</ele><time>2026-04-16T13:54:21.355Z</time></trkpt><trkpt lat="44.3158791" lon="10.2015214"><ele>1449.0</ele><time>2026-04-16T13:54:29.046Z</time></trkpt><trkpt lat="44.3158456" lon="10.2014461"><ele>1447.0</ele><time>2026-04-16T13:54:43.046Z</time></trkpt><trkpt lat="44.3158213" lon="10.2013554"><ele>1447.0</ele><time>2026-04-16T13:54:49.908Z</time></trkpt><trkpt lat="44.3157502" lon="10.2013904"><ele>1447.0</ele><time>2026-04-16T13:55:01.047Z</time></trkpt><trkpt lat="44.315684" lon="10.2013813"><ele>1447.0</ele><time>2026-04-16T13:55:29.047Z</time></trkpt><trkpt lat="44.315643" lon="10.2013069"><ele>1447.0</ele><time>2026-04-16T13:55:38.047Z</time></trkpt><trkpt lat="44.3156375" lon="10.2012135"><ele>1447.0</ele><time>2026-04-16T13:55:46.99Z</time></trkpt><trkpt lat="44.3156798" lon="10.2011259"><ele>1447.0</ele><time>2026-04-16T13:55:59.948Z</time></trkpt><trkpt lat="44.3156119" lon="10.2010931"><ele>1447.0</ele><time>2026-04-16T13:56:07.047Z</time></trkpt><trkpt lat="44.3155461" lon="10.2010828"><ele>1440.857142857143</ele><time>2026-04-16T13:56:11.047Z</time></trkpt><trkpt lat="44.3154831" lon="10.2010497"><ele>1434.7142857142858</ele><time>2026-04-16T13:56:18.047Z</time></trkpt><trkpt lat="44.3154213" lon="10.2009965"><ele>1428.5714285714287</ele><time>2026-04-16T13:56:34.07Z</time></trkpt><trkpt lat="44.315364" lon="10.2009567"><ele>1422.4285714285716</ele><time>2026-04-16T13:56:45.046Z</time></trkpt><trkpt lat="44.3153027" lon="10.200935"><ele>1416.2857142857142</ele><time>2026-04-16T13:56:54.046Z</time></trkpt><trkpt lat="44.3152427" lon="10.2009073"><ele>1410.1428571428573</ele><time>2026-04-16T13:57:01.113Z</time></trkpt><trkpt lat="44.3152087" lon="10.2008194"><ele>1404.0</ele><time>2026-04-16T13:57:09.08Z</time></trkpt><trkpt lat="44.3151469" lon="10.2007918"><ele>1404.0000000000002</ele><time>2026-04-16T13:57:19.061Z</time></trkpt><trkpt lat="44.3150919" lon="10.2007324"><ele>1404.0</ele><time>2026-04-16T13:57:37.996Z</time></trkpt><trkpt lat="44.3150224" lon="10.2007338"><ele>1404.0</ele><time>2026-04-16T13:57:44.046Z</time></trkpt><trkpt lat="44.3149581" lon="10.2007162"><ele>1404.0</ele><time>2026-04-16T13:57:57.983Z</time></trkpt><trkpt lat="44.3148942" lon="10.2007007"><ele>1404.0</ele><time>2026-04-16T13:58:07.067Z</time></trkpt><trkpt lat="44.3148332" lon="10.2006374"><ele>1404.0000000000002</ele><time>2026-04-16T13:58:22.085Z</time></trkpt><trkpt lat="44.3147734" lon="10.2006057"><ele>1404.0</ele><time>2026-04-16T13:58:37.047Z</time></trkpt><trkpt lat="44.3147106" lon="10.2005733"><ele>1404.1428571428573</ele><time>2026-04-16T13:58:44.047Z</time></trkpt><trkpt lat="44.3146358" lon="10.2005967"><ele>1404.2857142857142</ele><time>2026-04-16T13:58:49.063Z</time></trkpt><trkpt lat="44.3145743" lon="10.2006461"><ele>1404.4285714285716</ele><time>2026-04-16T13:58:55.053Z</time></trkpt><trkpt lat="44.3145034" lon="10.200666"><ele>1404.5714285714287</ele><time>2026-04-16T13:59:03.059Z</time></trkpt><trkpt lat="44.3144519" lon="10.2006127"><ele>1404.7142857142858</ele><time>2026-04-16T13:59:11.048Z</time></trkpt><trkpt lat="44.3143807" lon="10.2005952"><ele>1404.857142857143</ele><time>2026-04-16T13:59:22.057Z</time></trkpt><trkpt lat="44.314326" lon="10.2005367"><ele>1405.0</ele><time>2026-04-16T13:59:29.059Z</time></trkpt><trkpt lat="44.3142634" lon="10.2005607"><ele>1405.0</ele><time>2026-04-16T13:59:38.051Z</time></trkpt><trkpt lat="44.3142001" lon="10.200561"><ele>1405.0</ele><time>2026-04-16T13:59:49.056Z</time></trkpt><trkpt lat="44.3141375" lon="10.200525"><ele>1405.0</ele><time>2026-04-16T13:59:55.098Z</time></trkpt><trkpt lat="44.314071" lon="10.2005126"><ele>1405.0</ele><time>2026-04-16T14:00:04.047Z</time></trkpt><trkpt lat="44.3140143" lon="10.2004729"><ele>1405.0</ele><time>2026-04-16T14:00:12.048Z</time></trkpt><trkpt lat="44.3139514" lon="10.2004521"><ele>1405.0</ele><time>2026-04-16T14:00:19.047Z</time></trkpt><trkpt lat="44.3138757" lon="10.2004435"><ele>1405.0</ele><time>2026-04-16T14:00:30.076Z</time></trkpt><trkpt lat="44.3138106" lon="10.2004378"><ele>1401.142857142857</ele><time>2026-04-16T14:00:38.054Z</time></trkpt><trkpt lat="44.313754" lon="10.2003605"><ele>1397.2857142857144</ele><time>2026-04-16T14:00:49.07Z</time></trkpt><trkpt lat="44.3136841" lon="10.2003614"><ele>1393.4285714285716</ele><time>2026-04-16T14:00:55.048Z</time></trkpt><trkpt lat="44.3136622" lon="10.2002778"><ele>1389.5714285714284</ele><time>2026-04-16T14:01:03.023Z</time></trkpt><trkpt lat="44.3136131" lon="10.2002081"><ele>1385.7142857142858</ele><time>2026-04-16T14:01:12.047Z</time></trkpt><trkpt lat="44.3135565" lon="10.2001678"><ele>1381.857142857143</ele><time>2026-04-16T14:01:19.047Z</time></trkpt><trkpt lat="44.313495" lon="10.2001423"><ele>1378.0</ele><time>2026-04-16T14:01:25.047Z</time></trkpt><trkpt lat="44.3134279" lon="10.2001193"><ele>1378.0</ele><time>2026-04-16T14:01:34.047Z</time></trkpt><trkpt lat="44.3133691" lon="10.2000817"><ele>1378.0</ele><time>2026-04-16T14:01:45.063Z</time></trkpt><trkpt lat="44.3132972" lon="10.2000815"><ele>1378.0</ele><time>2026-04-16T14:01:55.057Z</time></trkpt><trkpt lat="44.3132462" lon="10.2000269"><ele>1378.0</ele><time>2026-04-16T14:02:03.047Z</time></trkpt><trkpt lat="44.3131885" lon="10.1999739"><ele>1378.0</ele><time>2026-04-16T14:02:13.079Z</time></trkpt><trkpt lat="44.3131596" lon="10.200064"><ele>1378.0</ele><time>2026-04-16T14:02:20.047Z</time></trkpt><trkpt lat="44.3130892" lon="10.2001189"><ele>1378.0</ele><time>2026-04-16T14:02:47.047Z</time></trkpt><trkpt lat="44.3130264" lon="10.2001275"><ele>1374.142857142857</ele><time>2026-04-16T14:02:57.051Z</time></trkpt><trkpt lat="44.3129558" lon="10.200117"><ele>1370.2857142857142</ele><time>2026-04-16T14:03:05.047Z</time></trkpt><trkpt lat="44.312902" lon="10.2001741"><ele>1366.4285714285716</ele><time>2026-04-16T14:03:15.048Z</time></trkpt><trkpt lat="44.3128701" lon="10.2002552"><ele>1362.5714285714284</ele><time>2026-04-16T14:03:25.05Z</time></trkpt><trkpt lat="44.3128529" lon="10.2003515"><ele>1358.7142857142858</ele><time>2026-04-16T14:03:38.065Z</time></trkpt><trkpt lat="44.3127878" lon="10.2003623"><ele>1354.857142857143</ele><time>2026-04-16T14:03:51.014Z</time></trkpt><trkpt lat="44.3127256" lon="10.2003953"><ele>1351.0</ele><time>2026-04-16T14:04:01.048Z</time></trkpt><trkpt lat="44.3127245" lon="10.2004853"><ele>1351.0</ele><time>2026-04-16T14:04:10.047Z</time></trkpt><trkpt lat="44.3126732" lon="10.2005444"><ele>1351.0</ele><time>2026-04-16T14:04:19.074Z</time></trkpt><trkpt lat="44.3126063" lon="10.2005342"><ele>1351.0</ele><time>2026-04-16T14:04:33.052Z</time></trkpt><trkpt lat="44.312552" lon="10.2005795"><ele>1351.0</ele><time>2026-04-16T14:04:42.047Z</time></trkpt><trkpt lat="44.3124872" lon="10.2005952"><ele>1351.0</ele><time>2026-04-16T14:04:53.048Z</time></trkpt><trkpt lat="44.3124923" lon="10.2006905"><ele>1351.0</ele><time>2026-04-16T14:05:01.024Z</time></trkpt><trkpt lat="44.3124267" lon="10.2006653"><ele>1351.0</ele><time>2026-04-16T14:05:13.052Z</time></trkpt><trkpt lat="44.3123882" lon="10.200735"><ele>1349.2857142857142</ele><time>2026-04-16T14:05:25.048Z</time></trkpt><trkpt lat="44.3124258" lon="10.2008091"><ele>1347.5714285714284</ele><time>2026-04-16T14:05:45.035Z</time></trkpt><trkpt lat="44.3123619" lon="10.2008089"><ele>1345.857142857143</ele><time>2026-04-16T14:06:03.123Z</time></trkpt><trkpt lat="44.3122963" lon="10.2009152"><ele>1344.142857142857</ele><time>2026-04-16T14:06:30.047Z</time></trkpt><trkpt lat="44.3122828" lon="10.2010159"><ele>1342.4285714285713</ele><time>2026-04-16T14:06:53.047Z</time></trkpt><trkpt lat="44.3122929" lon="10.2011057"><ele>1340.7142857142858</ele><time>2026-04-16T14:07:05.969Z</time></trkpt><trkpt lat="44.3122857" lon="10.2011987"><ele>1339.0</ele><time>2026-04-16T14:07:19.073Z</time></trkpt><trkpt lat="44.3122632" lon="10.2013435"><ele>1336.4285714285716</ele><time>2026-04-16T14:07:39.048Z</time></trkpt><trkpt lat="44.3122103" lon="10.2013973"><ele>1333.8571428571427</ele><time>2026-04-16T14:07:49.048Z</time></trkpt><trkpt lat="44.3121737" lon="10.201483"><ele>1331.2857142857142</ele><time>2026-04-16T14:08:00.047Z</time></trkpt><trkpt lat="44.3121491" lon="10.2015712"><ele>1328.7142857142858</ele><time>2026-04-16T14:08:08.047Z</time></trkpt><trkpt lat="44.3121085" lon="10.201656"><ele>1326.1428571428573</ele><time>2026-04-16T14:08:21.047Z</time></trkpt><trkpt lat="44.3120584" lon="10.201719"><ele>1323.5714285714284</ele><time>2026-04-16T14:08:33.073Z</time></trkpt><trkpt lat="44.3120117" lon="10.2017809"><ele>1321.0</ele><time>2026-04-16T14:08:44.048Z</time></trkpt><trkpt lat="44.3120476" lon="10.2018569"><ele>1319.2857142857142</ele><time>2026-04-16T14:09:04.951Z</time></trkpt><trkpt lat="44.312038" lon="10.201948"><ele>1317.5714285714287</ele><time>2026-04-16T14:09:16.048Z</time></trkpt><trkpt lat="44.3120656" lon="10.2020335"><ele>1315.857142857143</ele><time>2026-04-16T14:09:18.048Z</time></trkpt><trkpt lat="44.3120301" lon="10.2021287"><ele>1314.142857142857</ele><time>2026-04-16T14:09:22.047Z</time></trkpt><trkpt lat="44.3119684" lon="10.2021773"><ele>1312.4285714285716</ele><time>2026-04-16T14:09:26.067Z</time></trkpt><trkpt lat="44.3118975" lon="10.2022171"><ele>1310.7142857142858</ele><time>2026-04-16T14:09:30.952Z</time></trkpt><trkpt lat="44.3118322" lon="10.2022573"><ele>1309.0</ele><time>2026-04-16T14:09:35.975Z</time></trkpt><trkpt lat="44.3117927" lon="10.2023388"><ele>1307.142857142857</ele><time>2026-04-16T14:09:42.963Z</time></trkpt><trkpt lat="44.311826" lon="10.2024279"><ele>1305.2857142857142</ele><time>2026-04-16T14:09:48.894Z</time></trkpt><trkpt lat="44.3117673" lon="10.2024791"><ele>1303.4285714285716</ele><time>2026-04-16T14:10:02.057Z</time></trkpt><trkpt lat="44.3116968" lon="10.2024803"><ele>1301.5714285714284</ele><time>2026-04-16T14:10:13.048Z</time></trkpt><trkpt lat="44.3116369" lon="10.2025266"><ele>1299.7142857142858</ele><time>2026-04-16T14:10:23.047Z</time></trkpt><trkpt lat="44.3115739" lon="10.2025676"><ele>1297.857142857143</ele><time>2026-04-16T14:10:29.977Z</time></trkpt><trkpt lat="44.3115731" lon="10.2026571"><ele>1296.0</ele><time>2026-04-16T14:10:36.985Z</time></trkpt><trkpt lat="44.311527" lon="10.2027436"><ele>1296.0</ele><time>2026-04-16T14:10:52.047Z</time></trkpt><trkpt lat="44.3114629" lon="10.2027504"><ele>1296.0</ele><time>2026-04-16T14:11:13.048Z</time></trkpt><trkpt lat="44.3113976" lon="10.2027145"><ele>1296.0</ele><time>2026-04-16T14:11:22.066Z</time></trkpt><trkpt lat="44.3113272" lon="10.2026839"><ele>1296.0</ele><time>2026-04-16T14:11:29.065Z</time></trkpt><trkpt lat="44.3112716" lon="10.2026371"><ele>1296.0</ele><time>2026-04-16T14:11:36.047Z</time></trkpt><trkpt lat="44.3112104" lon="10.2026007"><ele>1296.0</ele><time>2026-04-16T14:11:42.038Z</time></trkpt><trkpt lat="44.3111536" lon="10.2025491"><ele>1296.0</ele><time>2026-04-16T14:11:49.08Z</time></trkpt><trkpt lat="44.3110802" lon="10.2025366"><ele>1294.4285714285716</ele><time>2026-04-16T14:11:55.07Z</time></trkpt><trkpt lat="44.3110199" lon="10.2025624"><ele>1292.857142857143</ele><time>2026-04-16T14:12:00.049Z</time></trkpt><trkpt lat="44.3109519" lon="10.2025871"><ele>1291.2857142857142</ele><time>2026-04-16T14:12:06.068Z</time></trkpt><trkpt lat="44.3108866" lon="10.2025742"><ele>1289.7142857142858</ele><time>2026-04-16T14:12:13.048Z</time></trkpt><trkpt lat="44.3108237" lon="10.202542"><ele>1288.142857142857</ele><time>2026-04-16T14:12:20.048Z</time></trkpt><trkpt lat="44.3107586" lon="10.2025136"><ele>1286.5714285714287</ele><time>2026-04-16T14:12:28.048Z</time></trkpt><trkpt lat="44.3106936" lon="10.2025318"><ele>1285.0</ele><time>2026-04-16T14:12:36.048Z</time></trkpt><trkpt lat="44.3106315" lon="10.202571"><ele>1284.0000000000002</ele><time>2026-04-16T14:12:41.009Z</time></trkpt><trkpt lat="44.3105717" lon="10.202618"><ele>1283.0</ele><time>2026-04-16T14:12:47.048Z</time></trkpt><trkpt lat="44.3105347" lon="10.2027112"><ele>1282.0</ele><time>2026-04-16T14:12:53.049Z</time></trkpt><trkpt lat="44.3105098" lon="10.202805"><ele>1281.0</ele><time>2026-04-16T14:12:58.049Z</time></trkpt><trkpt lat="44.3104702" lon="10.2028789"><ele>1280.0</ele><time>2026-04-16T14:13:03.049Z</time></trkpt><trkpt lat="44.310418" lon="10.2029473"><ele>1279.0000000000002</ele><time>2026-04-16T14:13:09.071Z</time></trkpt><trkpt lat="44.3103532" lon="10.2029969"><ele>1278.0</ele><time>2026-04-16T14:13:16.06Z</time></trkpt><trkpt lat="44.3102859" lon="10.2030336"><ele>1278.0000000000002</ele><time>2026-04-16T14:13:22.126Z</time></trkpt><trkpt lat="44.3102311" lon="10.2030816"><ele>1278.0</ele><time>2026-04-16T14:13:27.049Z</time></trkpt><trkpt lat="44.310172" lon="10.203124"><ele>1278.0</ele><time>2026-04-16T14:13:33.048Z</time></trkpt><trkpt lat="44.3101158" lon="10.2031682"><ele>1278.0</ele><time>2026-04-16T14:13:39.048Z</time></trkpt><trkpt lat="44.310058" lon="10.2032131"><ele>1278.0</ele><time>2026-04-16T14:13:45.048Z</time></trkpt><trkpt lat="44.3100059" lon="10.2032787"><ele>1278.0000000000002</ele><time>2026-04-16T14:13:51.048Z</time></trkpt><trkpt lat="44.30996" lon="10.2033509"><ele>1278.0</ele><time>2026-04-16T14:13:57.018Z</time></trkpt><trkpt lat="44.3099075" lon="10.2034126"><ele>1277.7142857142858</ele><time>2026-04-16T14:14:03.056Z</time></trkpt><trkpt lat="44.3098427" lon="10.2034456"><ele>1277.4285714285716</ele><time>2026-04-16T14:14:08.992Z</time></trkpt><trkpt lat="44.3097708" lon="10.2034637"><ele>1277.1428571428573</ele><time>2026-04-16T14:14:15.048Z</time></trkpt><trkpt lat="44.3097072" lon="10.2035171"><ele>1276.857142857143</ele><time>2026-04-16T14:14:22.069Z</time></trkpt><trkpt lat="44.3096621" lon="10.2035941"><ele>1276.5714285714284</ele><time>2026-04-16T14:14:28.048Z</time></trkpt><trkpt lat="44.3096042" lon="10.2036507"><ele>1276.2857142857144</ele><time>2026-04-16T14:14:34.049Z</time></trkpt><trkpt lat="44.3095479" lon="10.2036953"><ele>1276.0</ele><time>2026-04-16T14:14:39.988Z</time></trkpt><trkpt lat="44.3094968" lon="10.2037506"><ele>1276.142857142857</ele><time>2026-04-16T14:14:46.048Z</time></trkpt><trkpt lat="44.3094358" lon="10.2038055"><ele>1276.2857142857142</ele><time>2026-04-16T14:14:52.049Z</time></trkpt><trkpt lat="44.3093789" lon="10.2038627"><ele>1276.4285714285713</ele><time>2026-04-16T14:14:58.049Z</time></trkpt><trkpt lat="44.3093206" lon="10.2039015"><ele>1276.5714285714284</ele><time>2026-04-16T14:15:04.049Z</time></trkpt><trkpt lat="44.3092663" lon="10.2039538"><ele>1276.7142857142858</ele><time>2026-04-16T14:15:10.048Z</time></trkpt><trkpt lat="44.3092199" lon="10.2040252"><ele>1276.8571428571427</ele><time>2026-04-16T14:15:15.977Z</time></trkpt><trkpt lat="44.3092081" lon="10.2041193"><ele>1277.0</ele><time>2026-04-16T14:15:20.951Z</time></trkpt><trkpt lat="44.3091853" lon="10.204217"><ele>1276.9999999999998</ele><time>2026-04-16T14:15:28.048Z</time></trkpt><trkpt lat="44.309161" lon="10.2043115"><ele>1277.0</ele><time>2026-04-16T14:15:35.112Z</time></trkpt><trkpt lat="44.3091364" lon="10.204404"><ele>1277.0</ele><time>2026-04-16T14:15:43.057Z</time></trkpt><trkpt lat="44.3091254" lon="10.2044987"><ele>1277.0</ele><time>2026-04-16T14:15:52.054Z</time></trkpt><trkpt lat="44.3091542" lon="10.2045873"><ele>1277.0</ele><time>2026-04-16T14:15:59.968Z</time></trkpt><trkpt lat="44.3091954" lon="10.2046679"><ele>1276.9999999999998</ele><time>2026-04-16T14:16:07.049Z</time></trkpt><trkpt lat="44.3092449" lon="10.2047329"><ele>1277.0</ele><time>2026-04-16T14:16:15.049Z</time></trkpt><trkpt lat="44.3093029" lon="10.2047823"><ele>1276.9999999999998</ele><time>2026-04-16T14:16:21.027Z</time></trkpt><trkpt lat="44.3093639" lon="10.2048196"><ele>1277.0</ele><time>2026-04-16T14:16:27.049Z</time></trkpt><trkpt lat="44.3094067" lon="10.2048952"><ele>1277.0</ele><time>2026-04-16T14:16:34.048Z</time></trkpt><trkpt lat="44.3094137" lon="10.2050004"><ele>1277.0</ele><time>2026-04-16T14:16:40.047Z</time></trkpt><trkpt lat="44.3094401" lon="10.2050935"><ele>1277.0</ele><time>2026-04-16T14:16:47.049Z</time></trkpt><trkpt lat="44.3094637" lon="10.205181"><ele>1276.9999999999998</ele><time>2026-04-16T14:16:54.049Z</time></trkpt><trkpt lat="44.3094235" lon="10.2052518"><ele>1277.0</ele><time>2026-04-16T14:17:00.048Z</time></trkpt><trkpt lat="44.3094406" lon="10.2053424"><ele>1278.142857142857</ele><time>2026-04-16T14:17:06.065Z</time></trkpt><trkpt lat="44.3093959" lon="10.2054172"><ele>1279.2857142857142</ele><time>2026-04-16T14:17:14.971Z</time></trkpt><trkpt lat="44.3093454" lon="10.2054769"><ele>1280.4285714285716</ele><time>2026-04-16T14:17:23.072Z</time></trkpt><trkpt lat="44.3093317" lon="10.2055675"><ele>1281.5714285714284</ele><time>2026-04-16T14:17:30.064Z</time></trkpt><trkpt lat="44.3093168" lon="10.2056617"><ele>1282.7142857142858</ele><time>2026-04-16T14:17:39.048Z</time></trkpt><trkpt lat="44.309368" lon="10.2057361"><ele>1283.857142857143</ele><time>2026-04-16T14:17:45.976Z</time></trkpt><trkpt lat="44.3094334" lon="10.2057684"><ele>1285.0</ele><time>2026-04-16T14:17:51.049Z</time></trkpt><trkpt lat="44.3094761" lon="10.2058355"><ele>1285.1428571428573</ele><time>2026-04-16T14:17:57.05Z</time></trkpt><trkpt lat="44.3095339" lon="10.2058737"><ele>1285.2857142857142</ele><time>2026-04-16T14:18:17.066Z</time></trkpt><trkpt lat="44.3095753" lon="10.2059462"><ele>1285.4285714285716</ele><time>2026-04-16T14:18:22.131Z</time></trkpt><trkpt lat="44.3095819" lon="10.2060439"><ele>1285.5714285714287</ele><time>2026-04-16T14:18:28.048Z</time></trkpt><trkpt lat="44.3096136" lon="10.2061258"><ele>1285.7142857142858</ele><time>2026-04-16T14:18:34.068Z</time></trkpt><trkpt lat="44.3096271" lon="10.206225"><ele>1285.857142857143</ele><time>2026-04-16T14:18:42.057Z</time></trkpt><trkpt lat="44.3095775" lon="10.2063099"><ele>1286.0</ele><time>2026-04-16T14:18:48.052Z</time></trkpt><trkpt lat="44.3095296" lon="10.2063734"><ele>1286.0</ele><time>2026-04-16T14:18:54.049Z</time></trkpt><trkpt lat="44.309478" lon="10.2064284"><ele>1286.0</ele><time>2026-04-16T14:18:59.991Z</time></trkpt><trkpt lat="44.3094229" lon="10.2064858"><ele>1286.0</ele><time>2026-04-16T14:19:06.049Z</time></trkpt><trkpt lat="44.3093672" lon="10.2065409"><ele>1286.0</ele><time>2026-04-16T14:19:12.048Z</time></trkpt><trkpt lat="44.3093114" lon="10.2065907"><ele>1286.0</ele><time>2026-04-16T14:19:18.047Z</time></trkpt><trkpt lat="44.3092474" lon="10.206632"><ele>1286.0</ele><time>2026-04-16T14:19:25.049Z</time></trkpt><trkpt lat="44.3091967" lon="10.206703"><ele>1286.0</ele><time>2026-04-16T14:19:31.049Z</time></trkpt><trkpt lat="44.3091565" lon="10.2067903"><ele>1284.5714285714284</ele><time>2026-04-16T14:19:37.059Z</time></trkpt><trkpt lat="44.3091264" lon="10.2068676"><ele>1283.1428571428573</ele><time>2026-04-16T14:19:43.059Z</time></trkpt><trkpt lat="44.3090704" lon="10.2069129"><ele>1281.7142857142858</ele><time>2026-04-16T14:19:51.092Z</time></trkpt><trkpt lat="44.3090056" lon="10.2069715"><ele>1280.2857142857142</ele><time>2026-04-16T14:20:00.049Z</time></trkpt><trkpt lat="44.308972" lon="10.2070537"><ele>1278.8571428571427</ele><time>2026-04-16T14:20:06.048Z</time></trkpt><trkpt lat="44.3089518" lon="10.2071372"><ele>1277.4285714285716</ele><time>2026-04-16T14:20:12.049Z</time></trkpt><trkpt lat="44.3089362" lon="10.2072338"><ele>1276.0</ele><time>2026-04-16T14:20:18.037Z</time></trkpt><trkpt lat="44.3089105" lon="10.2073163"><ele>1278.857142857143</ele><time>2026-04-16T14:20:24.075Z</time></trkpt><trkpt lat="44.308885" lon="10.2074002"><ele>1281.7142857142856</ele><time>2026-04-16T14:20:31.088Z</time></trkpt><trkpt lat="44.3088918" lon="10.2074932"><ele>1284.5714285714284</ele><time>2026-04-16T14:20:38.005Z</time></trkpt><trkpt lat="44.3089059" lon="10.2075868"><ele>1287.4285714285716</ele><time>2026-04-16T14:20:44.073Z</time></trkpt><trkpt lat="44.3088639" lon="10.2076703"><ele>1290.2857142857142</ele><time>2026-04-16T14:20:51.076Z</time></trkpt><trkpt lat="44.3088243" lon="10.2077442"><ele>1293.142857142857</ele><time>2026-04-16T14:20:57.064Z</time></trkpt><trkpt lat="44.3087865" lon="10.2078364"><ele>1296.0</ele><time>2026-04-16T14:21:03.056Z</time></trkpt><trkpt lat="44.3087622" lon="10.2079182"><ele>1296.0</ele><time>2026-04-16T14:21:09.069Z</time></trkpt><trkpt lat="44.3087377" lon="10.2080166"><ele>1296.0</ele><time>2026-04-16T14:21:16.057Z</time></trkpt><trkpt lat="44.3087272" lon="10.2081089"><ele>1296.0</ele><time>2026-04-16T14:21:23.068Z</time></trkpt><trkpt lat="44.3087661" lon="10.2081843"><ele>1296.0</ele><time>2026-04-16T14:21:29.049Z</time></trkpt><trkpt lat="44.3087621" lon="10.2082897"><ele>1296.0</ele><time>2026-04-16T14:21:35.063Z</time></trkpt><trkpt lat="44.3087141" lon="10.2083474"><ele>1296.0</ele><time>2026-04-16T14:21:41.01Z</time></trkpt><trkpt lat="44.3086603" lon="10.2084123"><ele>1296.0</ele><time>2026-04-16T14:21:45.058Z</time></trkpt><trkpt lat="44.308609" lon="10.2084671"><ele>1294.5714285714287</ele><time>2026-04-16T14:21:50.063Z</time></trkpt><trkpt lat="44.3085659" lon="10.2085382"><ele>1293.142857142857</ele><time>2026-04-16T14:21:56.049Z</time></trkpt><trkpt lat="44.3085364" lon="10.2086237"><ele>1291.7142857142858</ele><time>2026-04-16T14:22:04.059Z</time></trkpt><trkpt lat="44.3084992" lon="10.2087073"><ele>1290.2857142857142</ele><time>2026-04-16T14:22:36.048Z</time></trkpt><trkpt lat="44.3084745" lon="10.2088029"><ele>1288.857142857143</ele><time>2026-04-16T14:22:42.049Z</time></trkpt><trkpt lat="44.3085025" lon="10.2088821"><ele>1287.4285714285713</ele><time>2026-04-16T14:22:47.048Z</time></trkpt><trkpt lat="44.3085463" lon="10.208954"><ele>1286.0</ele><time>2026-04-16T14:22:52.049Z</time></trkpt><trkpt lat="44.3085948" lon="10.2090119"><ele>1284.7142857142856</ele><time>2026-04-16T14:22:57.049Z</time></trkpt><trkpt lat="44.3086201" lon="10.2091001"><ele>1283.4285714285716</ele><time>2026-04-16T14:23:03.038Z</time></trkpt><trkpt lat="44.3086668" lon="10.209168"><ele>1282.142857142857</ele><time>2026-04-16T14:23:09.049Z</time></trkpt><trkpt lat="44.3086802" lon="10.2092632"><ele>1280.8571428571427</ele><time>2026-04-16T14:23:16.048Z</time></trkpt><trkpt lat="44.3086714" lon="10.2093647"><ele>1279.5714285714284</ele><time>2026-04-16T14:23:29.949Z</time></trkpt><trkpt lat="44.3086755" lon="10.2094575"><ele>1278.2857142857142</ele><time>2026-04-16T14:23:34.048Z</time></trkpt><trkpt lat="44.3087005" lon="10.2095409"><ele>1277.0</ele><time>2026-04-16T14:23:40.994Z</time></trkpt><trkpt lat="44.3087158" lon="10.2096383"><ele>1276.9999999999998</ele><time>2026-04-16T14:23:48.049Z</time></trkpt><trkpt lat="44.3086982" lon="10.2097318"><ele>1277.0</ele><time>2026-04-16T14:23:54.968Z</time></trkpt><trkpt lat="44.3087105" lon="10.2098247"><ele>1277.0</ele><time>2026-04-16T14:24:02.047Z</time></trkpt><trkpt lat="44.3086766" lon="10.2099122"><ele>1277.0</ele><time>2026-04-16T14:24:10.025Z</time></trkpt><trkpt lat="44.3086281" lon="10.2099888"><ele>1277.0</ele><time>2026-04-16T14:24:17.049Z</time></trkpt><trkpt lat="44.3085788" lon="10.2100513"><ele>1276.9999999999998</ele><time>2026-04-16T14:24:24.049Z</time></trkpt><trkpt lat="44.3085173" lon="10.2101001"><ele>1277.0</ele><time>2026-04-16T14:24:31.049Z</time></trkpt><trkpt lat="44.3084776" lon="10.210173"><ele>1275.8571428571427</ele><time>2026-04-16T14:24:38.048Z</time></trkpt><trkpt lat="44.3084565" lon="10.2102626"><ele>1274.7142857142858</ele><time>2026-04-16T14:24:45.103Z</time></trkpt><trkpt lat="44.3084296" lon="10.2103516"><ele>1273.5714285714284</ele><time>2026-04-16T14:24:52.069Z</time></trkpt><trkpt lat="44.3083766" lon="10.2104022"><ele>1272.4285714285713</ele><time>2026-04-16T14:24:59.048Z</time></trkpt><trkpt lat="44.3083259" lon="10.2104555"><ele>1271.2857142857142</ele><time>2026-04-16T14:25:05.053Z</time></trkpt><trkpt lat="44.3082624" lon="10.210499"><ele>1270.142857142857</ele><time>2026-04-16T14:25:11.05Z</time></trkpt><trkpt lat="44.3082011" lon="10.2105224"><ele>1269.0</ele><time>2026-04-16T14:25:17.048Z</time></trkpt><trkpt lat="44.3081254" lon="10.2105436"><ele>1270.0</ele><time>2026-04-16T14:25:24.057Z</time></trkpt><trkpt lat="44.3080608" lon="10.2105463"><ele>1271.0</ele><time>2026-04-16T14:25:29.047Z</time></trkpt><trkpt lat="44.3080039" lon="10.2106036"><ele>1272.0</ele><time>2026-04-16T14:25:35.044Z</time></trkpt><trkpt lat="44.3079421" lon="10.2106242"><ele>1273.0</ele><time>2026-04-16T14:25:41.048Z</time></trkpt><trkpt lat="44.3078721" lon="10.2106214"><ele>1274.0</ele><time>2026-04-16T14:25:46.978Z</time></trkpt><trkpt lat="44.3078045" lon="10.2105948"><ele>1275.0</ele><time>2026-04-16T14:25:53.048Z</time></trkpt><trkpt lat="44.3077371" lon="10.2105831"><ele>1276.0</ele><time>2026-04-16T14:25:59.055Z</time></trkpt><trkpt lat="44.307675" lon="10.210602"><ele>1276.0</ele><time>2026-04-16T14:26:05.081Z</time></trkpt><trkpt lat="44.3076078" lon="10.2106234"><ele>1276.0</ele><time>2026-04-16T14:26:11.072Z</time></trkpt><trkpt lat="44.3075429" lon="10.2106368"><ele>1276.0</ele><time>2026-04-16T14:26:16.976Z</time></trkpt><trkpt lat="44.3074774" lon="10.2106007"><ele>1276.0</ele><time>2026-04-16T14:26:23.048Z</time></trkpt><trkpt lat="44.3074035" lon="10.2105612"><ele>1276.0</ele><time>2026-04-16T14:26:28.972Z</time></trkpt><trkpt lat="44.3073401" lon="10.2105098"><ele>1276.0</ele><time>2026-04-16T14:26:35.047Z</time></trkpt><trkpt lat="44.307283" lon="10.210462"><ele>1276.0</ele><time>2026-04-16T14:26:41.046Z</time></trkpt><trkpt lat="44.3072215" lon="10.2104247"><ele>1274.857142857143</ele><time>2026-04-16T14:26:46.07Z</time></trkpt><trkpt lat="44.3071507" lon="10.2103948"><ele>1273.7142857142856</ele><time>2026-04-16T14:26:52.077Z</time></trkpt><trkpt lat="44.3070872" lon="10.2103446"><ele>1272.5714285714284</ele><time>2026-04-16T14:26:58.057Z</time></trkpt><trkpt lat="44.3070249" lon="10.2102943"><ele>1271.4285714285716</ele><time>2026-04-16T14:27:04.048Z</time></trkpt><trkpt lat="44.3069694" lon="10.2102309"><ele>1270.2857142857142</ele><time>2026-04-16T14:27:10.073Z</time></trkpt><trkpt lat="44.3068868" lon="10.2102052"><ele>1269.142857142857</ele><time>2026-04-16T14:27:16.858Z</time></trkpt><trkpt lat="44.3068174" lon="10.2102041"><ele>1268.0</ele><time>2026-04-16T14:27:23.049Z</time></trkpt><trkpt lat="44.3067584" lon="10.2101573"><ele>1268.0</ele><time>2026-04-16T14:27:29.048Z</time></trkpt><trkpt lat="44.3067236" lon="10.2100823"><ele>1268.0</ele><time>2026-04-16T14:27:35.049Z</time></trkpt><trkpt lat="44.3066762" lon="10.2100232"><ele>1268.0</ele><time>2026-04-16T14:27:44.048Z</time></trkpt><trkpt lat="44.3066385" lon="10.2099353"><ele>1268.0</ele><time>2026-04-16T14:27:50.049Z</time></trkpt><trkpt lat="44.3065784" lon="10.2098966"><ele>1268.0</ele><time>2026-04-16T14:27:57.049Z</time></trkpt><trkpt lat="44.3065433" lon="10.2098133"><ele>1291.0</ele><time>2026-04-16T14:28:07.049Z</time></trkpt><trkpt lat="44.3065173" lon="10.2097139"><ele>1291.0</ele><time>2026-04-16T14:28:19.048Z</time></trkpt></trkseg></trk></gpx>